Time,TemperatureF,DewpointF,PressureIn,WindDirection,WindDirectionDegrees,WindSpeedMPH,WindSpeedGustMPH,Humidity,HourlyPrecipIn,Conditions,Clouds,dailyrainin,SoftwareType,DateUTC
2013-04-04 00:01:00,57.0,54.0,30.08,NNE,22,14.0,14.0,90,0.00,,,0.00,TxWx,2013-04-04 06:01:00,
2013-04-04 00:02:00,57.0,54.0,30.08,NE,45,10.0,10.0,90,0.00,,,0.00,TxWx,2013-04-04 06:02:00,
2013-04-04 00:06:00,57.0,54.0,30.08,North,0,11.0,11.0,90,0.00,,,0.00,TxWx,2013-04-04 06:06:00,
2013-04-04 00:07:00,57.0,54.0,30.08,NE,45,10.0,10.0,90,0.00,,,0.00,TxWx,2013-04-04 06:07:00,
2013-04-04 00:08:00,58.0,55.0,30.08,NE,45,6.0,9.0,91,0.00,,,0.00,TxWx,2013-04-04 06:08:00,
2013-04-04 00:09:00,57.0,54.0,30.09,NE,45,10.0,18.0,90,0.00,,,0.00,TxWx,2013-04-04 06:09:00,
2013-04-04 00:12:00,57.0,54.0,30.08,North,0,9.0,11.0,90,0.00,,,0.00,TxWx,2013-04-04 06:12:00,
2013-04-04 00:14:00,57.0,54.0,30.08,NNE,22,11.0,11.0,90,0.00,,,0.00,TxWx,2013-04-04 06:14:00,
2013-04-04 00:17:00,57.0,54.0,30.08,NNE,22,8.0,8.0,90,0.00,,,0.00,TxWx,2013-04-04 06:17:00,
2013-04-04 00:19:00,57.0,54.0,30.08,East,90,9.0,10.0,90,0.00,,,0.00,TxWx,2013-04-04 06:19:00,
2013-04-04 00:20:00,57.0,54.0,30.08,NNE,22,13.0,13.0,90,0.00,,,0.00,TxWx,2013-04-04 06:20:00,
2013-04-04 00:23:00,58.0,55.0,30.08,NNE,22,8.0,11.0,91,0.00,,,0.00,TxWx,2013-04-04 06:23:00,
2013-04-04 00:24:00,57.0,54.0,30.08,NE,45,9.0,11.0,91,0.00,,,0.00,TxWx,2013-04-04 06:24:00,
2013-04-04 00:27:00,57.0,54.0,30.08,NE,45,11.0,11.0,90,0.00,,,0.00,TxWx,2013-04-04 06:27:00,
2013-04-04 00:32:00,57.0,54.0,30.08,North,0,10.0,10.0,90,0.00,,,0.00,TxWx,2013-04-04 06:32:00,
2013-04-04 00:33:00,57.0,54.0,30.08,NNE,22,12.0,12.0,90,0.00,,,0.00,TxWx,2013-04-04 06:33:00,
2013-04-04 00:34:00,57.0,54.0,30.08,NNE,22,6.0,11.0,91,0.00,,,0.00,TxWx,2013-04-04 06:34:00,
2013-04-04 00:38:00,57.0,54.0,30.08,NE,45,8.0,8.0,90,0.00,,,0.00,TxWx,2013-04-04 06:38:00,
2013-04-04 00:39:00,57.0,54.0,30.07,NE,45,9.0,10.0,90,0.00,,,0.00,TxWx,2013-04-04 06:39:00,
2013-04-04 00:40:00,57.0,54.0,30.08,NE,45,9.0,9.0,90,0.00,,,0.00,TxWx,2013-04-04 06:40:00,
2013-04-04 00:43:00,57.0,54.0,30.07,NNE,22,10.0,10.0,90,0.00,,,0.00,TxWx,2013-04-04 06:43:00,
2013-04-04 00:47:00,57.0,54.0,30.07,NNE,22,11.0,11.0,90,0.00,,,0.00,TxWx,2013-04-04 06:47:00,
2013-04-04 00:50:00,57.0,54.0,30.07,ENE,67,10.0,10.0,90,0.00,,,0.00,TxWx,2013-04-04 06:50:00,
2013-04-04 00:51:00,57.0,54.0,30.07,NNE,22,6.0,8.0,90,0.00,,,0.00,TxWx,2013-04-04 06:51:00,
2013-04-04 00:52:00,57.0,54.0,30.07,ENE,67,6.0,6.0,90,0.00,,,0.00,TxWx,2013-04-04 06:52:00,
2013-04-04 00:53:00,57.0,54.0,30.07,North,0,3.0,3.0,90,0.00,,,0.00,TxWx,2013-04-04 06:53:00,
2013-04-04 00:55:00,57.0,54.0,30.07,ENE,67,10.0,10.0,90,0.00,,,0.00,TxWx,2013-04-04 06:55:00,
2013-04-04 00:58:00,57.0,54.0,30.07,NE,45,2.0,3.0,90,0.00,,,0.00,TxWx,2013-04-04 06:58:00,
2013-04-04 00:59:00,57.0,54.0,30.07,NE,45,8.0,9.0,90,0.00,,,0.00,TxWx,2013-04-04 06:59:00,
2013-04-04 01:01:00,57.0,54.0,30.07,NNE,22,11.0,11.0,90,0.00,,,0.00,TxWx,2013-04-04 07:01:00,
2013-04-04 01:04:00,57.0,54.0,30.06,NE,45,5.0,5.0,90,0.00,,,0.00,TxWx,2013-04-04 07:04:00,
2013-04-04 01:06:00,58.0,55.0,30.06,NNE,22,5.0,6.0,91,0.00,,,0.00,TxWx,2013-04-04 07:06:00,
2013-04-04 01:09:00,57.0,54.0,30.06,North,0,8.0,8.0,90,0.00,,,0.00,TxWx,2013-04-04 07:09:00,
2013-04-04 01:12:00,57.0,54.0,30.06,NNE,22,11.0,11.0,90,0.00,,,0.00,TxWx,2013-04-04 07:12:00,
2013-04-04 01:13:00,57.0,54.0,30.06,NNE,22,12.0,12.0,90,0.00,,,0.00,TxWx,2013-04-04 07:13:00,
2013-04-04 01:14:00,57.0,54.0,30.06,NNE,22,8.0,10.0,90,0.00,,,0.00,TxWx,2013-04-04 07:14:00,
2013-04-04 01:18:00,57.0,54.0,30.06,NNE,22,7.0,9.0,90,0.00,,,0.00,TxWx,2013-04-04 07:18:00,
2013-04-04 01:20:00,57.0,54.0,30.06,NE,45,6.0,6.0,90,0.00,,,0.00,TxWx,2013-04-04 07:20:00,
2013-04-04 01:23:00,57.0,54.0,30.06,ENE,67,8.0,10.0,90,0.00,,,0.00,TxWx,2013-04-04 07:23:00,
2013-04-04 01:24:00,57.0,54.0,30.06,NNW,337,7.0,7.0,90,0.00,,,0.00,TxWx,2013-04-04 07:24:00,
2013-04-04 01:25:00,57.0,54.0,30.06,NE,45,5.0,6.0,90,0.00,,,0.00,TxWx,2013-04-04 07:25:00,
2013-04-04 01:29:00,57.0,54.0,30.06,NNW,337,6.0,7.0,90,0.00,,,0.00,TxWx,2013-04-04 07:29:00,
2013-04-04 01:30:00,57.0,54.0,30.06,NW,315,6.0,6.0,90,0.00,,,0.00,TxWx,2013-04-04 07:30:00,
2013-04-04 01:31:00,57.0,54.0,30.06,NNE,22,5.0,5.0,90,0.00,,,0.00,TxWx,2013-04-04 07:31:00,
2013-04-04 01:32:00,57.0,54.0,30.06,NNW,337,8.0,8.0,90,0.00,,,0.00,TxWx,2013-04-04 07:32:00,
2013-04-04 01:34:00,57.0,54.0,30.06,NNE,22,6.0,6.0,90,0.00,,,0.00,TxWx,2013-04-04 07:34:00,
2013-04-04 01:37:00,57.0,54.0,30.05,North,0,8.0,9.0,90,0.00,,,0.00,TxWx,2013-04-04 07:37:00,
2013-04-04 01:40:00,57.0,54.0,30.05,NNW,337,4.0,5.0,90,0.00,,,0.00,TxWx,2013-04-04 07:40:00,
2013-04-04 01:41:00,57.0,54.0,30.05,North,0,4.0,5.0,90,0.00,,,0.00,TxWx,2013-04-04 07:41:00,
2013-04-04 01:42:00,57.0,54.0,30.05,East,90,4.0,5.0,90,0.00,,,0.00,TxWx,2013-04-04 07:42:00,
2013-04-04 01:46:00,57.0,54.0,30.05,NNE,22,6.0,6.0,90,0.00,,,0.00,TxWx,2013-04-04 07:46:00,
2013-04-04 01:47:00,57.0,54.0,30.05,NE,45,8.0,8.0,90,0.00,,,0.00,TxWx,2013-04-04 07:47:00,
2013-04-04 01:48:00,57.0,54.0,30.06,NE,45,4.0,5.0,91,0.00,,,0.00,TxWx,2013-04-04 07:48:00,
2013-04-04 01:52:00,57.0,54.0,30.05,NNE,22,10.0,10.0,90,0.00,,,0.00,TxWx,2013-04-04 07:52:00,
2013-04-04 01:53:00,57.0,54.0,30.05,North,0,6.0,8.0,90,0.00,,,0.00,TxWx,2013-04-04 07:53:00,
2013-04-04 01:54:00,57.0,54.0,30.05,NNW,337,5.0,6.0,90,0.00,,,0.00,TxWx,2013-04-04 07:54:00,
2013-04-04 01:57:00,57.0,54.0,30.05,North,0,4.0,4.0,90,0.00,,,0.00,TxWx,2013-04-04 07:57:00,
2013-04-04 01:58:00,57.0,54.0,30.05,NNE,22,10.0,11.0,90,0.00,,,0.00,TxWx,2013-04-04 07:58:00,
2013-04-04 01:59:00,57.0,54.0,30.05,SE,135,4.0,5.0,90,0.00,,,0.00,TxWx,2013-04-04 07:59:00,
2013-04-04 02:04:00,57.0,54.0,30.05,NNE,22,6.0,6.0,90,0.00,,,0.00,TxWx,2013-04-04 08:04:00,
2013-04-04 02:05:00,57.0,54.0,30.05,NE,45,5.0,5.0,90,0.00,,,0.00,TxWx,2013-04-04 08:05:00,
2013-04-04 02:09:00,57.0,54.0,30.05,NE,45,6.0,6.0,90,0.00,,,0.00,TxWx,2013-04-04 08:09:00,
2013-04-04 02:10:00,57.0,54.0,30.05,NE,45,6.0,6.0,90,0.00,,,0.00,TxWx,2013-04-04 08:10:00,
2013-04-04 02:11:00,57.0,54.0,30.05,NNW,337,8.0,8.0,90,0.00,,,0.00,TxWx,2013-04-04 08:11:00,
2013-04-04 02:14:00,57.0,54.0,30.05,NNE,22,8.0,10.0,90,0.00,,,0.00,TxWx,2013-04-04 08:14:00,
2013-04-04 02:16:00,57.0,54.0,30.05,NNE,22,8.0,8.0,89,0.00,,,0.00,TxWx,2013-04-04 08:16:00,
2013-04-04 02:17:00,57.0,54.0,30.05,NE,45,7.0,8.0,89,0.00,,,0.00,TxWx,2013-04-04 08:17:00,
2013-04-04 02:20:00,57.0,54.0,30.05,North,0,8.0,10.0,90,0.00,,,0.00,TxWx,2013-04-04 08:20:00,
2013-04-04 02:21:00,57.0,54.0,30.05,NE,45,3.0,3.0,90,0.00,,,0.00,TxWx,2013-04-04 08:21:00,
2013-04-04 02:23:00,57.0,54.0,30.05,NNE,22,5.0,5.0,90,0.00,,,0.00,TxWx,2013-04-04 08:23:00,
2013-04-04 02:25:00,57.0,54.0,30.06,NNW,337,5.0,6.0,90,0.00,,,0.00,TxWx,2013-04-04 08:25:00,
2013-04-04 02:27:00,57.0,54.0,30.06,NNW,337,5.0,6.0,90,0.00,,,0.00,TxWx,2013-04-04 08:27:00,
2013-04-04 02:29:00,57.0,54.0,30.06,NNW,337,5.0,5.0,89,0.00,,,0.00,TxWx,2013-04-04 08:29:00,
2013-04-04 02:31:00,57.0,54.0,30.07,NW,315,6.0,8.0,89,0.00,,,0.00,TxWx,2013-04-04 08:31:00,
2013-04-04 02:32:00,57.0,54.0,30.07,NNW,337,7.0,7.0,89,0.00,,,0.00,TxWx,2013-04-04 08:32:00,
2013-04-04 02:34:00,57.0,54.0,30.06,North,0,3.0,3.0,89,0.00,,,0.00,TxWx,2013-04-04 08:34:00,
2013-04-04 02:35:00,57.0,54.0,30.07,NNW,337,3.0,3.0,89,0.00,,,0.00,TxWx,2013-04-04 08:35:00,
2013-04-04 02:38:00,57.0,54.0,30.07,North,0,3.0,3.0,89,0.00,,,0.00,TxWx,2013-04-04 08:38:00,
2013-04-04 02:39:00,56.0,53.0,30.07,NNE,22,7.0,8.0,89,0.00,,,0.00,TxWx,2013-04-04 08:39:00,
2013-04-04 02:40:00,56.0,53.0,30.07,North,0,6.0,6.0,89,0.00,,,0.00,TxWx,2013-04-04 08:40:00,
2013-04-04 02:41:00,57.0,54.0,30.07,NNW,337,5.0,6.0,89,0.00,,,0.00,TxWx,2013-04-04 08:41:00,
2013-04-04 02:44:00,56.0,52.0,30.07,NW,315,5.0,5.0,88,0.00,,,0.00,TxWx,2013-04-04 08:44:00,
2013-04-04 02:45:00,56.0,52.0,30.07,NNW,337,6.0,6.0,88,0.00,,,0.00,TxWx,2013-04-04 08:45:00,
2013-04-04 02:46:00,56.0,52.0,30.07,NNW,337,6.0,8.0,88,0.00,,,0.00,TxWx,2013-04-04 08:46:00,
2013-04-04 02:49:00,56.0,52.0,30.08,NNE,22,5.0,5.0,88,0.00,,,0.00,TxWx,2013-04-04 08:49:00,
2013-04-04 02:50:00,56.0,52.0,30.07,North,0,6.0,6.0,88,0.00,,,0.00,TxWx,2013-04-04 08:50:00,
2013-04-04 02:52:00,56.0,52.0,30.07,NNW,337,4.0,5.0,88,0.00,,,0.00,TxWx,2013-04-04 08:52:00,
2013-04-04 02:55:00,56.0,52.0,30.07,NW,315,4.0,4.0,88,0.00,,,0.00,TxWx,2013-04-04 08:55:00,
2013-04-04 02:56:00,56.0,52.0,30.07,North,0,5.0,5.0,88,0.00,,,0.00,TxWx,2013-04-04 08:56:00,
2013-04-04 02:58:00,57.0,53.0,30.07,NNW,337,4.0,4.0,88,0.00,,,0.00,TxWx,2013-04-04 08:58:00,
2013-04-04 02:59:00,57.0,53.0,30.07,NNW,337,3.0,4.0,88,0.00,,,0.00,TxWx,2013-04-04 08:59:00,
2013-04-04 03:02:00,57.0,53.0,30.08,NNW,337,5.0,6.0,88,0.00,,,0.00,TxWx,2013-04-04 09:02:00,
2013-04-04 03:04:00,56.0,52.0,30.08,North,0,6.0,6.0,88,0.00,,,0.00,TxWx,2013-04-04 09:04:00,
2013-04-04 03:05:00,56.0,52.0,30.08,North,0,6.0,6.0,88,0.00,,,0.00,TxWx,2013-04-04 09:05:00,
2013-04-04 03:07:00,56.0,52.0,30.08,NNW,337,4.0,5.0,88,0.00,,,0.00,TxWx,2013-04-04 09:07:00,
2013-04-04 03:09:00,56.0,52.0,30.07,NNW,337,5.0,6.0,88,0.00,,,0.00,TxWx,2013-04-04 09:09:00,
2013-04-04 03:10:00,56.0,52.0,30.08,NNW,337,6.0,6.0,88,0.00,,,0.00,TxWx,2013-04-04 09:10:00,
2013-04-04 03:11:00,56.0,52.0,30.08,NNW,337,4.0,5.0,88,0.00,,,0.00,TxWx,2013-04-04 09:11:00,
2013-04-04 03:14:00,57.0,53.0,30.08,NNE,22,3.0,3.0,88,0.00,,,0.00,TxWx,2013-04-04 09:14:00,
2013-04-04 03:15:00,56.0,52.0,30.08,NNE,22,8.0,10.0,88,0.00,,,0.00,TxWx,2013-04-04 09:15:00,
2013-04-04 03:18:00,57.0,53.0,30.08,NW,315,3.0,3.0,88,0.00,,,0.00,TxWx,2013-04-04 09:18:00,
2013-04-04 03:20:00,57.0,53.0,30.08,NNE,22,6.0,6.0,88,0.00,,,0.00,TxWx,2013-04-04 09:20:00,
2013-04-04 03:21:00,56.0,52.0,30.07,NNW,337,5.0,5.0,88,0.00,,,0.00,TxWx,2013-04-04 09:21:00,
2013-04-04 03:23:00,57.0,53.0,30.08,NNE,22,4.0,4.0,88,0.00,,,0.00,TxWx,2013-04-04 09:23:00,
2013-04-04 03:24:00,57.0,53.0,30.08,NNW,337,3.0,4.0,88,0.00,,,0.00,TxWx,2013-04-04 09:24:00,
2013-04-04 03:25:00,57.0,53.0,30.08,NNW,337,5.0,5.0,88,0.00,,,0.00,TxWx,2013-04-04 09:25:00,
2013-04-04 03:28:00,57.0,53.0,30.08,NW,315,4.0,4.0,88,0.00,,,0.00,TxWx,2013-04-04 09:28:00,
2013-04-04 03:30:00,57.0,53.0,30.08,West,270,3.0,4.0,87,0.00,,,0.00,TxWx,2013-04-04 09:30:00,
2013-04-04 03:31:00,57.0,53.0,30.08,NNW,337,5.0,5.0,87,0.00,,,0.00,TxWx,2013-04-04 09:31:00,
2013-04-04 03:34:00,57.0,53.0,30.08,NNW,337,6.0,7.0,87,0.00,,,0.00,TxWx,2013-04-04 09:34:00,
2013-04-04 03:35:00,56.0,52.0,30.08,North,0,6.0,7.0,87,0.00,,,0.00,TxWx,2013-04-04 09:35:00,
2013-04-04 03:36:00,57.0,53.0,30.08,NW,315,6.0,6.0,87,0.00,,,0.00,TxWx,2013-04-04 09:36:00,
2013-04-04 03:39:00,57.0,53.0,30.08,WNW,292,3.0,5.0,87,0.00,,,0.00,TxWx,2013-04-04 09:39:00,
2013-04-04 03:42:00,57.0,53.0,30.08,North,0,3.0,3.0,87,0.00,,,0.00,TxWx,2013-04-04 09:42:00,
2013-04-04 03:45:00,56.0,52.0,30.08,NNE,22,8.0,8.0,87,0.00,,,0.00,TxWx,2013-04-04 09:45:00,
2013-04-04 03:47:00,57.0,53.0,30.08,North,0,8.0,8.0,87,0.00,,,0.00,TxWx,2013-04-04 09:47:00,
2013-04-04 03:50:00,57.0,53.0,30.08,NNW,337,5.0,5.0,87,0.00,,,0.00,TxWx,2013-04-04 09:50:00,
2013-04-04 03:54:00,57.0,53.0,30.08,NNE,22,8.0,8.0,87,0.00,,,0.00,TxWx,2013-04-04 09:54:00,
2013-04-04 03:55:00,57.0,53.0,30.08,NNW,337,7.0,8.0,87,0.00,,,0.00,TxWx,2013-04-04 09:55:00,
2013-04-04 03:59:00,57.0,53.0,30.08,NNW,337,10.0,10.0,87,0.00,,,0.00,TxWx,2013-04-04 09:59:00,
2013-04-04 04:00:00,57.0,53.0,30.08,NNW,337,9.0,9.0,87,0.00,,,0.00,TxWx,2013-04-04 10:00:00,
2013-04-04 04:01:00,57.0,53.0,30.08,NNW,337,8.0,8.0,87,0.00,,,0.00,TxWx,2013-04-04 10:01:00,
2013-04-04 04:04:00,56.0,52.0,30.08,NNW,337,6.0,10.0,87,0.00,,,0.00,TxWx,2013-04-04 10:04:00,
2013-04-04 04:05:00,57.0,53.0,30.08,NW,315,5.0,5.0,87,0.00,,,0.00,TxWx,2013-04-04 10:05:00,
2013-04-04 04:07:00,57.0,53.0,30.08,NNW,337,5.0,5.0,87,0.00,,,0.00,TxWx,2013-04-04 10:07:00,
2013-04-04 04:09:00,56.0,52.0,30.08,NNE,22,7.0,8.0,87,0.00,,,0.00,TxWx,2013-04-04 10:09:00,
2013-04-04 04:11:00,56.0,52.0,30.08,NNW,337,5.0,5.0,87,0.00,,,0.00,TxWx,2013-04-04 10:11:00,
2013-04-04 04:12:00,56.0,52.0,30.08,North,0,8.0,9.0,87,0.00,,,0.00,TxWx,2013-04-04 10:12:00,
2013-04-04 04:13:00,56.0,52.0,30.08,NW,315,8.0,9.0,87,0.00,,,0.00,TxWx,2013-04-04 10:13:00,
2013-04-04 04:14:00,56.0,52.0,30.08,NNW,337,4.0,4.0,87,0.00,,,0.00,TxWx,2013-04-04 10:14:00,
2013-04-04 04:18:00,56.0,52.0,30.08,NNW,337,6.0,7.0,86,0.00,,,0.00,TxWx,2013-04-04 10:18:00,
2013-04-04 04:19:00,56.0,52.0,30.08,NW,315,5.0,5.0,87,0.00,,,0.00,TxWx,2013-04-04 10:19:00,
2013-04-04 04:22:00,56.0,52.0,30.08,NNW,337,5.0,5.0,87,0.00,,,0.00,TxWx,2013-04-04 10:22:00,
2013-04-04 04:23:00,56.0,52.0,30.08,North,0,6.0,6.0,87,0.00,,,0.00,TxWx,2013-04-04 10:23:00,
2013-04-04 04:24:00,56.0,52.0,30.08,WNW,292,6.0,6.0,87,0.00,,,0.00,TxWx,2013-04-04 10:24:00,
2013-04-04 04:28:00,56.0,52.0,30.08,NNW,337,6.0,6.0,87,0.00,,,0.00,TxWx,2013-04-04 10:28:00,
2013-04-04 04:29:00,56.0,52.0,30.08,North,0,6.0,6.0,87,0.00,,,0.00,TxWx,2013-04-04 10:29:00,
2013-04-04 04:31:00,56.0,52.0,30.08,NNE,22,11.0,12.0,87,0.00,,,0.00,TxWx,2013-04-04 10:31:00,
2013-04-04 04:36:00,56.0,52.0,30.08,North,0,6.0,6.0,87,0.00,,,0.00,TxWx,2013-04-04 10:36:00,
2013-04-04 04:38:00,56.0,52.0,30.08,NNW,337,4.0,4.0,87,0.00,,,0.00,TxWx,2013-04-04 10:38:00,
2013-04-04 04:42:00,56.0,52.0,30.08,North,0,3.0,4.0,88,0.00,,,0.00,TxWx,2013-04-04 10:42:00,
2013-04-04 04:43:00,56.0,52.0,30.08,NNW,337,9.0,11.0,88,0.00,,,0.00,TxWx,2013-04-04 10:43:00,
2013-04-04 04:46:00,56.0,52.0,30.09,NNW,337,5.0,5.0,88,0.00,,,0.00,TxWx,2013-04-04 10:46:00,
2013-04-04 04:47:00,56.0,52.0,30.09,NNW,337,4.0,4.0,88,0.00,,,0.00,TxWx,2013-04-04 10:47:00,
2013-04-04 04:48:00,56.0,52.0,30.09,NNW,337,5.0,5.0,88,0.00,,,0.00,TxWx,2013-04-04 10:48:00,
2013-04-04 04:50:00,56.0,52.0,30.08,NNW,337,5.0,5.0,88,0.00,,,0.00,TxWx,2013-04-04 10:50:00,
2013-04-04 04:54:00,56.0,52.0,30.08,NNW,337,8.0,10.0,88,0.00,,,0.00,TxWx,2013-04-04 10:54:00,
2013-04-04 04:55:00,56.0,52.0,30.08,NNW,337,6.0,6.0,88,0.00,,,0.00,TxWx,2013-04-04 10:55:00,
2013-04-04 05:01:00,56.0,52.0,30.09,NNW,337,6.0,8.0,87,0.00,,,0.00,TxWx,2013-04-04 11:01:00,
2013-04-04 05:04:00,56.0,52.0,30.09,North,0,5.0,7.0,88,0.00,,,0.00,TxWx,2013-04-04 11:04:00,
2013-04-04 05:06:00,56.0,52.0,30.09,NNW,337,5.0,5.0,88,0.00,,,0.00,TxWx,2013-04-04 11:06:00,
2013-04-04 05:07:00,56.0,52.0,30.09,North,0,5.0,5.0,88,0.00,,,0.00,TxWx,2013-04-04 11:07:00,
2013-04-04 05:09:00,56.0,52.0,30.09,NNW,337,8.0,8.0,88,0.00,,,0.00,TxWx,2013-04-04 11:09:00,
2013-04-04 05:12:00,56.0,52.0,30.09,North,0,8.0,8.0,88,0.00,,,0.00,TxWx,2013-04-04 11:12:00,
2013-04-04 05:15:00,56.0,52.0,30.09,NE,45,5.0,5.0,88,0.00,,,0.00,TxWx,2013-04-04 11:15:00,
2013-04-04 05:16:00,56.0,52.0,30.09,North,0,10.0,10.0,88,0.00,,,0.00,TxWx,2013-04-04 11:16:00,
2013-04-04 05:19:00,56.0,52.0,30.09,North,0,6.0,7.0,88,0.00,,,0.00,TxWx,2013-04-04 11:19:00,
2013-04-04 05:20:00,56.0,52.0,30.09,NNE,22,4.0,5.0,88,0.00,,,0.00,TxWx,2013-04-04 11:20:00,
2013-04-04 05:25:00,56.0,52.0,30.09,NNW,337,8.0,10.0,88,0.00,,,0.00,TxWx,2013-04-04 11:25:00,
2013-04-04 05:26:00,56.0,52.0,30.09,NNW,337,5.0,5.0,88,0.00,,,0.00,TxWx,2013-04-04 11:26:00,
2013-04-04 05:29:00,56.0,52.0,30.09,North,0,6.0,6.0,88,0.00,,,0.00,TxWx,2013-04-04 11:29:00,
2013-04-04 05:30:00,56.0,52.0,30.09,North,0,4.0,4.0,88,0.00,,,0.00,TxWx,2013-04-04 11:30:00,
2013-04-04 05:31:00,56.0,52.0,30.09,North,0,3.0,4.0,88,0.00,,,0.00,TxWx,2013-04-04 11:31:00,
2013-04-04 05:36:00,56.0,52.0,30.09,NNW,337,3.0,3.0,88,0.00,,,0.00,TxWx,2013-04-04 11:36:00,
2013-04-04 05:37:00,56.0,52.0,30.09,NW,315,2.0,2.0,88,0.00,,,0.00,TxWx,2013-04-04 11:37:00,
2013-04-04 05:40:00,56.0,52.0,30.09,NNW,337,10.0,10.0,88,0.00,,,0.00,TxWx,2013-04-04 11:40:00,
2013-04-04 05:42:00,56.0,52.0,30.10,NNW,337,12.0,12.0,88,0.00,,,0.00,TxWx,2013-04-04 11:42:00,
2013-04-04 05:46:00,56.0,52.0,30.10,NNW,337,6.0,6.0,88,0.00,,,0.00,TxWx,2013-04-04 11:46:00,
2013-04-04 05:47:00,56.0,52.0,30.10,North,0,12.0,13.0,88,0.00,,,0.00,TxWx,2013-04-04 11:47:00,
2013-04-04 05:49:00,56.0,52.0,30.10,NW,315,3.0,3.0,88,0.00,,,0.00,TxWx,2013-04-04 11:49:00,
2013-04-04 05:51:00,56.0,52.0,30.10,North,0,8.0,8.0,88,0.00,,,0.00,TxWx,2013-04-04 11:51:00,
2013-04-04 05:52:00,56.0,52.0,30.10,NW,315,9.0,9.0,88,0.00,,,0.00,TxWx,2013-04-04 11:52:00,
2013-04-04 05:56:00,56.0,52.0,30.10,North,0,8.0,9.0,88,0.00,,,0.00,TxWx,2013-04-04 11:56:00,
2013-04-04 05:57:00,56.0,52.0,30.10,NNW,337,5.0,5.0,88,0.00,,,0.00,TxWx,2013-04-04 11:57:00,
2013-04-04 06:02:00,56.0,52.0,30.10,NNW,337,9.0,10.0,88,0.00,,,0.00,TxWx,2013-04-04 12:02:00,
2013-04-04 06:03:00,56.0,52.0,30.10,NNE,22,5.0,7.0,88,0.00,,,0.00,TxWx,2013-04-04 12:03:00,
2013-04-04 06:04:00,56.0,52.0,30.10,North,0,10.0,10.0,88,0.00,,,0.00,TxWx,2013-04-04 12:04:00,
2013-04-04 06:09:00,56.0,52.0,30.11,NNW,337,6.0,6.0,88,0.00,,,0.00,TxWx,2013-04-04 12:09:00,
2013-04-04 06:10:00,56.0,52.0,30.11,North,0,5.0,6.0,88,0.00,,,0.00,TxWx,2013-04-04 12:10:00,
2013-04-04 06:14:00,56.0,52.0,30.11,NW,315,6.0,7.0,88,0.00,,,0.00,TxWx,2013-04-04 12:14:00,
2013-04-04 06:15:00,56.0,52.0,30.11,NNW,337,8.0,9.0,88,0.00,,,0.00,TxWx,2013-04-04 12:15:00,
2013-04-04 06:16:00,56.0,52.0,30.11,NNW,337,10.0,11.0,88,0.00,,,0.00,TxWx,2013-04-04 12:16:00,
2013-04-04 06:20:00,56.0,52.0,30.11,NNW,337,10.0,10.0,88,0.00,,,0.00,TxWx,2013-04-04 12:20:00,
2013-04-04 06:21:00,56.0,53.0,30.11,NNW,337,8.0,8.0,89,0.00,,,0.00,TxWx,2013-04-04 12:21:00,
2013-04-04 06:22:00,56.0,53.0,30.11,NNW,337,11.0,11.0,89,0.00,,,0.00,TxWx,2013-04-04 12:22:00,
2013-04-04 06:26:00,55.0,52.0,30.11,NNW,337,11.0,11.0,89,0.00,,,0.00,TxWx,2013-04-04 12:26:00,
2013-04-04 06:27:00,55.0,52.0,30.11,NNW,337,11.0,13.0,89,0.00,,,0.00,TxWx,2013-04-04 12:27:00,
2013-04-04 06:28:00,55.0,52.0,30.12,NNW,337,9.0,10.0,89,0.00,,,0.00,TxWx,2013-04-04 12:28:00,
2013-04-04 06:29:00,55.0,52.0,30.12,NNW,337,8.0,9.0,89,0.00,,,0.00,TxWx,2013-04-04 12:29:00,
2013-04-04 06:32:00,55.0,52.0,30.12,NNW,337,8.0,8.0,89,0.00,,,0.00,TxWx,2013-04-04 12:32:00,
2013-04-04 06:33:00,55.0,52.0,30.12,NNW,337,8.0,9.0,89,0.00,,,0.00,TxWx,2013-04-04 12:33:00,
2013-04-04 06:35:00,55.0,52.0,30.12,NNW,337,5.0,5.0,89,0.00,,,0.00,TxWx,2013-04-04 12:35:00,
2013-04-04 06:36:00,55.0,52.0,30.12,NNW,337,5.0,6.0,89,0.00,,,0.00,TxWx,2013-04-04 12:36:00,
2013-04-04 06:37:00,55.0,52.0,30.12,NNW,337,7.0,7.0,89,0.00,,,0.00,TxWx,2013-04-04 12:37:00,
2013-04-04 06:40:00,55.0,52.0,30.12,NNW,337,10.0,10.0,89,0.00,,,0.00,TxWx,2013-04-04 12:40:00,
2013-04-04 06:42:00,55.0,52.0,30.12,WNW,292,8.0,10.0,89,0.00,,,0.00,TxWx,2013-04-04 12:42:00,
2013-04-04 06:44:00,55.0,52.0,30.12,NNW,337,5.0,6.0,89,0.00,,,0.00,TxWx,2013-04-04 12:44:00,
2013-04-04 06:46:00,55.0,52.0,30.13,NNW,337,13.0,13.0,89,0.00,,,0.00,TxWx,2013-04-04 12:46:00,
2013-04-04 06:49:00,55.0,52.0,30.13,WSW,247,3.0,4.0,89,0.00,,,0.00,TxWx,2013-04-04 12:49:00,
2013-04-04 06:50:00,55.0,52.0,30.13,NNW,337,3.0,4.0,90,0.00,,,0.00,TxWx,2013-04-04 12:50:00,
2013-04-04 06:54:00,55.0,52.0,30.13,WNW,292,8.0,8.0,89,0.00,,,0.00,TxWx,2013-04-04 12:54:00,
2013-04-04 06:55:00,55.0,52.0,30.13,NNW,337,7.0,8.0,89,0.00,,,0.00,TxWx,2013-04-04 12:55:00,
2013-04-04 06:59:00,55.0,52.0,30.13,NW,315,4.0,5.0,89,0.00,,,0.00,TxWx,2013-04-04 12:59:00,
2013-04-04 07:00:00,55.0,52.0,30.12,NW,315,5.0,5.0,89,0.00,,,0.00,TxWx,2013-04-04 13:00:00,
2013-04-04 07:01:00,55.0,52.0,30.13,NNW,337,5.0,5.0,89,0.00,,,0.00,TxWx,2013-04-04 13:01:00,
2013-04-04 07:06:00,55.0,52.0,30.13,NNW,337,8.0,9.0,89,0.00,,,0.00,TxWx,2013-04-04 13:06:00,
2013-04-04 07:07:00,55.0,52.0,30.13,WNW,292,10.0,10.0,89,0.00,,,0.00,TxWx,2013-04-04 13:07:00,
2013-04-04 07:12:00,55.0,52.0,30.13,NNW,337,4.0,5.0,89,0.00,,,0.00,TxWx,2013-04-04 13:12:00,
2013-04-04 07:13:00,55.0,52.0,30.13,NW,315,5.0,5.0,89,0.00,,,0.00,TxWx,2013-04-04 13:13:00,
2013-04-04 07:17:00,55.0,52.0,30.13,NW,315,12.0,12.0,89,0.00,,,0.00,TxWx,2013-04-04 13:17:00,
2013-04-04 07:18:00,55.0,52.0,30.13,NW,315,8.0,8.0,89,0.00,,,0.00,TxWx,2013-04-04 13:18:00,
2013-04-04 07:22:00,55.0,52.0,30.13,NNW,337,7.0,7.0,89,0.00,,,0.00,TxWx,2013-04-04 13:22:00,
2013-04-04 07:23:00,55.0,52.0,30.13,NNW,337,7.0,8.0,88,0.00,,,0.00,TxWx,2013-04-04 13:23:00,
2013-04-04 07:24:00,55.0,52.0,30.13,NNW,337,7.0,7.0,89,0.00,,,0.00,TxWx,2013-04-04 13:24:00,
2013-04-04 07:28:00,55.0,52.0,30.14,NNE,22,6.0,7.0,88,0.00,,,0.00,TxWx,2013-04-04 13:28:00,
2013-04-04 07:30:00,55.0,52.0,30.14,NNE,22,8.0,9.0,88,0.00,,,0.00,TxWx,2013-04-04 13:30:00,
2013-04-04 07:31:00,55.0,52.0,30.13,NNW,337,6.0,6.0,88,0.00,,,0.00,TxWx,2013-04-04 13:31:00,
2013-04-04 07:34:00,55.0,52.0,30.14,NNW,337,6.0,6.0,88,0.00,,,0.00,TxWx,2013-04-04 13:34:00,
2013-04-04 07:36:00,55.0,52.0,30.14,NNW,337,4.0,5.0,88,0.00,,,0.00,TxWx,2013-04-04 13:36:00,
2013-04-04 07:40:00,55.0,52.0,30.14,North,0,6.0,6.0,88,0.00,,,0.00,TxWx,2013-04-04 13:40:00,
2013-04-04 07:42:00,55.0,51.0,30.14,NNW,337,7.0,9.0,88,0.00,,,0.00,TxWx,2013-04-04 13:42:00,
2013-04-04 07:45:00,55.0,52.0,30.14,NW,315,3.0,3.0,88,0.00,,,0.00,TxWx,2013-04-04 13:45:00,
2013-04-04 07:46:00,55.0,51.0,30.14,NNW,337,4.0,5.0,88,0.00,,,0.00,TxWx,2013-04-04 13:46:00,
2013-04-04 07:47:00,55.0,52.0,30.14,NE,45,3.0,4.0,88,0.00,,,0.00,TxWx,2013-04-04 13:47:00,
2013-04-04 07:48:00,55.0,51.0,30.14,North,0,10.0,10.0,88,0.00,,,0.00,TxWx,2013-04-04 13:48:00,
2013-04-04 07:50:00,55.0,51.0,30.14,NW,315,6.0,7.0,88,0.00,,,0.00,TxWx,2013-04-04 13:50:00,
2013-04-04 07:52:00,55.0,51.0,30.14,NNW,337,5.0,5.0,88,0.00,,,0.00,TxWx,2013-04-04 13:52:00,
2013-04-04 07:53:00,55.0,52.0,30.14,NNW,337,8.0,9.0,88,0.00,,,0.00,TxWx,2013-04-04 13:53:00,
2013-04-04 07:54:00,55.0,52.0,30.14,NNW,337,8.0,8.0,88,0.00,,,0.00,TxWx,2013-04-04 13:54:00,
2013-04-04 07:55:00,55.0,52.0,30.14,NNE,22,6.0,6.0,88,0.00,,,0.00,TxWx,2013-04-04 13:55:00,
2013-04-04 07:58:00,55.0,52.0,30.14,NNE,22,6.0,6.0,88,0.00,,,0.00,TxWx,2013-04-04 13:58:00,
2013-04-04 07:59:00,55.0,52.0,30.14,North,0,10.0,10.0,88,0.00,,,0.00,TxWx,2013-04-04 13:59:00,
2013-04-04 08:01:00,55.0,52.0,30.14,North,0,5.0,8.0,88,0.00,,,0.00,TxWx,2013-04-04 14:01:00,
2013-04-04 08:04:00,55.0,52.0,30.14,NNE,22,7.0,8.0,88,0.00,,,0.00,TxWx,2013-04-04 14:04:00,
2013-04-04 08:06:00,55.0,51.0,30.14,NNE,22,5.0,6.0,88,0.00,,,0.00,TxWx,2013-04-04 14:06:00,
2013-04-04 08:07:00,55.0,51.0,30.14,NNW,337,5.0,5.0,88,0.00,,,0.00,TxWx,2013-04-04 14:07:00,
2013-04-04 08:08:00,55.0,51.0,30.14,NNW,337,2.0,2.0,88,0.00,,,0.00,TxWx,2013-04-04 14:08:00,
2013-04-04 08:09:00,55.0,51.0,30.14,NNE,22,6.0,6.0,88,0.00,,,0.00,TxWx,2013-04-04 14:09:00,
2013-04-04 08:13:00,55.0,51.0,30.14,North,0,5.0,5.0,88,0.00,,,0.00,TxWx,2013-04-04 14:13:00,
2013-04-04 08:14:00,55.0,51.0,30.14,NNW,337,8.0,8.0,87,0.00,,,0.00,TxWx,2013-04-04 14:14:00,
2013-04-04 08:15:00,55.0,51.0,30.14,WNW,292,5.0,5.0,87,0.00,,,0.00,TxWx,2013-04-04 14:15:00,
2013-04-04 08:19:00,56.0,52.0,30.15,North,0,6.0,6.0,87,0.00,,,0.00,TxWx,2013-04-04 14:19:00,
2013-04-04 08:21:00,56.0,52.0,30.15,NNW,337,4.0,5.0,86,0.00,,,0.00,TxWx,2013-04-04 14:21:00,
2013-04-04 08:23:00,56.0,52.0,30.15,NNW,337,8.0,8.0,86,0.00,,,0.00,TxWx,2013-04-04 14:23:00,
2013-04-04 08:24:00,55.0,51.0,30.15,North,0,5.0,6.0,86,0.00,,,0.00,TxWx,2013-04-04 14:24:00,
2013-04-04 08:25:00,56.0,52.0,30.15,NNW,337,3.0,4.0,86,0.00,,,0.00,TxWx,2013-04-04 14:25:00,
2013-04-04 08:28:00,56.0,52.0,30.15,NNW,337,8.0,8.0,86,0.00,,,0.00,TxWx,2013-04-04 14:28:00,
2013-04-04 08:29:00,56.0,52.0,30.15,North,0,7.0,7.0,85,0.00,,,0.00,TxWx,2013-04-04 14:29:00,
2013-04-04 08:31:00,56.0,52.0,30.15,NNW,337,5.0,6.0,85,0.00,,,0.00,TxWx,2013-04-04 14:31:00,
2013-04-04 08:35:00,56.0,52.0,30.15,North,0,3.0,3.0,85,0.00,,,0.00,TxWx,2013-04-04 14:35:00,
2013-04-04 08:39:00,56.0,51.0,30.15,NNW,337,7.0,7.0,84,0.00,,,0.00,TxWx,2013-04-04 14:39:00,
2013-04-04 08:40:00,56.0,51.0,30.15,NNW,337,5.0,6.0,85,0.00,,,0.00,TxWx,2013-04-04 14:40:00,
2013-04-04 08:41:00,56.0,51.0,30.15,NNW,337,7.0,7.0,84,0.00,,,0.00,TxWx,2013-04-04 14:41:00,
2013-04-04 08:46:00,56.0,51.0,30.15,NNE,22,10.0,10.0,83,0.00,,,0.00,TxWx,2013-04-04 14:46:00,
2013-04-04 08:47:00,56.0,51.0,30.15,NNW,337,8.0,10.0,83,0.00,,,0.00,TxWx,2013-04-04 14:47:00,
2013-04-04 08:48:00,56.0,51.0,30.15,NW,315,12.0,12.0,82,0.00,,,0.00,TxWx,2013-04-04 14:48:00,
2013-04-04 08:52:00,56.0,50.0,30.15,NNW,337,10.0,11.0,82,0.00,,,0.00,TxWx,2013-04-04 14:52:00,
2013-04-04 08:53:00,56.0,50.0,30.15,NNE,22,5.0,5.0,82,0.00,,,0.00,TxWx,2013-04-04 14:53:00,
2013-04-04 08:54:00,56.0,51.0,30.15,North,0,9.0,9.0,82,0.00,,,0.00,TxWx,2013-04-04 14:54:00,
2013-04-04 08:57:00,56.0,50.0,30.15,North,0,9.0,10.0,81,0.00,,,0.00,TxWx,2013-04-04 14:57:00,
2013-04-04 08:59:00,56.0,50.0,30.15,NNW,337,9.0,10.0,82,0.00,,,0.00,TxWx,2013-04-04 14:59:00,
2013-04-04 09:00:00,56.0,50.0,30.15,NNW,337,9.0,9.0,82,0.00,,,0.00,TxWx,2013-04-04 15:00:00,
2013-04-04 09:03:00,56.0,50.0,30.15,North,0,5.0,6.0,82,0.00,,,0.00,TxWx,2013-04-04 15:03:00,
2013-04-04 09:05:00,56.0,50.0,30.15,NW,315,5.0,5.0,81,0.00,,,0.00,TxWx,2013-04-04 15:05:00,
2013-04-04 09:06:00,56.0,50.0,30.15,North,0,13.0,13.0,81,0.00,,,0.00,TxWx,2013-04-04 15:06:00,
2013-04-04 09:08:00,56.0,50.0,30.15,NNW,337,8.0,8.0,81,0.00,,,0.00,TxWx,2013-04-04 15:08:00,
2013-04-04 09:11:00,56.0,50.0,30.15,NNW,337,9.0,9.0,80,0.00,,,0.00,TxWx,2013-04-04 15:11:00,
2013-04-04 09:12:00,56.0,50.0,30.15,NNW,337,5.0,5.0,81,0.00,,,0.00,TxWx,2013-04-04 15:12:00,
2013-04-04 09:13:00,56.0,50.0,30.15,NNW,337,11.0,11.0,80,0.00,,,0.00,TxWx,2013-04-04 15:13:00,
2013-04-04 09:14:00,56.0,50.0,30.15,NNW,337,13.0,13.0,80,0.00,,,0.00,TxWx,2013-04-04 15:14:00,
2013-04-04 09:17:00,56.0,50.0,30.15,NNE,22,7.0,7.0,80,0.00,,,0.00,TxWx,2013-04-04 15:17:00,
2013-04-04 09:19:00,56.0,50.0,30.15,NNE,22,11.0,11.0,80,0.00,,,0.00,TxWx,2013-04-04 15:19:00,
2013-04-04 09:22:00,57.0,51.0,30.15,NNW,337,7.0,7.0,81,0.00,,,0.00,TxWx,2013-04-04 15:22:00,
2013-04-04 09:24:00,56.0,50.0,30.15,NNW,337,8.0,10.0,80,0.00,,,0.00,TxWx,2013-04-04 15:24:00,
2013-04-04 09:25:00,57.0,51.0,30.15,North,0,9.0,10.0,80,0.00,,,0.00,TxWx,2013-04-04 15:25:00,
2013-04-04 09:29:00,56.0,50.0,30.15,NNW,337,11.0,13.0,80,0.00,,,0.00,TxWx,2013-04-04 15:29:00,
2013-04-04 09:31:00,56.0,50.0,30.14,NW,315,6.0,10.0,80,0.00,,,0.00,TxWx,2013-04-04 15:31:00,
2013-04-04 09:33:00,57.0,50.0,30.15,NNE,22,8.0,8.0,80,0.00,,,0.00,TxWx,2013-04-04 15:33:00,
2013-04-04 09:34:00,56.0,50.0,30.14,NNW,337,10.0,10.0,79,0.00,,,0.00,TxWx,2013-04-04 15:34:00,
2013-04-04 09:35:00,56.0,50.0,30.14,North,0,9.0,10.0,79,0.00,,,0.00,TxWx,2013-04-04 15:35:00,
2013-04-04 09:38:00,56.0,50.0,30.15,NNW,337,10.0,10.0,79,0.00,,,0.00,TxWx,2013-04-04 15:38:00,
2013-04-04 09:39:00,56.0,49.0,30.14,NNW,337,10.0,11.0,79,0.00,,,0.00,TxWx,2013-04-04 15:39:00,
2013-04-04 09:40:00,56.0,50.0,30.15,North,0,6.0,7.0,79,0.00,,,0.00,TxWx,2013-04-04 15:40:00,
2013-04-04 09:43:00,57.0,51.0,30.15,North,0,6.0,6.0,80,0.00,,,0.00,TxWx,2013-04-04 15:43:00,
2013-04-04 09:46:00,56.0,49.0,30.15,NNW,337,10.0,10.0,79,0.00,,,0.00,TxWx,2013-04-04 15:46:00,
2013-04-04 09:47:00,56.0,50.0,30.15,NNE,22,8.0,9.0,79,0.00,,,0.00,TxWx,2013-04-04 15:47:00,
2013-04-04 09:49:00,57.0,51.0,30.15,North,0,6.0,6.0,80,0.00,,,0.00,TxWx,2013-04-04 15:49:00,
2013-04-04 09:51:00,57.0,51.0,30.15,North,0,8.0,9.0,79,0.00,,,0.00,TxWx,2013-04-04 15:51:00,
2013-04-04 09:53:00,57.0,51.0,30.15,North,0,8.0,8.0,80,0.00,,,0.00,TxWx,2013-04-04 15:53:00,
2013-04-04 09:54:00,57.0,51.0,30.15,NNW,337,8.0,8.0,80,0.00,,,0.00,TxWx,2013-04-04 15:54:00,
2013-04-04 09:57:00,56.0,50.0,30.15,North,0,14.0,14.0,80,0.00,,,0.00,TxWx,2013-04-04 15:57:00,
2013-04-04 09:58:00,56.0,50.0,30.15,NNE,22,4.0,4.0,80,0.00,,,0.00,TxWx,2013-04-04 15:58:00,
2013-04-04 09:59:00,56.0,50.0,30.15,NNE,22,6.0,6.0,80,0.00,,,0.00,TxWx,2013-04-04 15:59:00,
2013-04-04 10:00:00,57.0,51.0,30.15,NNW,337,8.0,10.0,80,0.00,,,0.00,TxWx,2013-04-04 16:00:00,
2013-04-04 10:03:00,56.0,50.0,30.15,North,0,10.0,10.0,80,0.00,,,0.00,TxWx,2013-04-04 16:03:00,
2013-04-04 10:05:00,57.0,51.0,30.15,NNW,337,7.0,8.0,80,0.00,,,0.00,TxWx,2013-04-04 16:05:00,
2013-04-04 10:08:00,57.0,51.0,30.15,NE,45,8.0,9.0,79,0.00,,,0.00,TxWx,2013-04-04 16:08:00,
2013-04-04 10:11:00,57.0,50.0,30.15,NNW,337,8.0,10.0,78,0.00,,,0.00,TxWx,2013-04-04 16:11:00,
2013-04-04 10:12:00,57.0,50.0,30.16,NNE,22,5.0,5.0,79,0.00,,,0.00,TxWx,2013-04-04 16:12:00,
2013-04-04 10:13:00,57.0,50.0,30.15,NNW,337,6.0,6.0,78,0.00,,,0.00,TxWx,2013-04-04 16:13:00,
2013-04-04 10:14:00,58.0,51.0,30.15,NNW,337,6.0,6.0,78,0.00,,,0.00,TxWx,2013-04-04 16:14:00,
2013-04-04 10:17:00,58.0,50.0,30.16,NW,315,11.0,11.0,76,0.00,,,0.00,TxWx,2013-04-04 16:17:00,
2013-04-04 10:18:00,58.0,50.0,30.16,NNW,337,10.0,10.0,76,0.00,,,0.00,TxWx,2013-04-04 16:18:00,
2013-04-04 10:20:00,58.0,50.0,30.16,NNW,337,13.0,13.0,76,0.00,,,0.00,TxWx,2013-04-04 16:20:00,
2013-04-04 10:21:00,58.0,50.0,30.16,NNW,337,16.0,16.0,75,0.00,,,0.00,TxWx,2013-04-04 16:21:00,
2013-04-04 10:23:00,58.0,50.0,30.16,NNW,337,6.0,6.0,75,0.00,,,0.00,TxWx,2013-04-04 16:23:00,
2013-04-04 10:27:00,58.0,50.0,30.15,NNW,337,5.0,5.0,74,0.00,,,0.00,TxWx,2013-04-04 16:27:00,
2013-04-04 10:28:00,59.0,51.0,30.16,North,0,11.0,11.0,74,0.00,,,0.00,TxWx,2013-04-04 16:28:00,
2013-04-04 10:29:00,58.0,50.0,30.15,NNE,22,11.0,11.0,74,0.00,,,0.00,TxWx,2013-04-04 16:29:00,
2013-04-04 10:31:00,59.0,51.0,30.16,NW,315,8.0,10.0,74,0.00,,,0.00,TxWx,2013-04-04 16:31:00,
2013-04-04 10:34:00,59.0,51.0,30.16,NNE,22,7.0,9.0,75,0.00,,,0.00,TxWx,2013-04-04 16:34:00,
2013-04-04 10:35:00,59.0,51.0,30.16,NNW,337,13.0,13.0,74,0.00,,,0.00,TxWx,2013-04-04 16:35:00,
2013-04-04 10:36:00,60.0,52.0,30.16,NE,45,3.0,4.0,74,0.00,,,0.00,TxWx,2013-04-04 16:36:00,
2013-04-04 10:40:00,59.0,50.0,30.16,NNW,337,5.0,7.0,72,0.00,,,0.00,TxWx,2013-04-04 16:40:00,
2013-04-04 10:42:00,60.0,51.0,30.16,NNW,337,11.0,11.0,72,0.00,,,0.00,TxWx,2013-04-04 16:42:00,
2013-04-04 10:44:00,60.0,51.0,30.16,NNE,22,3.0,3.0,72,0.00,,,0.00,TxWx,2013-04-04 16:44:00,
2013-04-04 10:46:00,60.0,51.0,30.16,NNW,337,6.0,6.0,72,0.00,,,0.00,TxWx,2013-04-04 16:46:00,
2013-04-04 10:48:00,60.0,51.0,30.16,West,270,7.0,7.0,72,0.00,,,0.00,TxWx,2013-04-04 16:48:00,
2013-04-04 10:49:00,60.0,51.0,30.16,NNW,337,11.0,11.0,71,0.00,,,0.00,TxWx,2013-04-04 16:49:00,
2013-04-04 10:51:00,60.0,50.0,30.16,NNW,337,11.0,13.0,70,0.00,,,0.00,TxWx,2013-04-04 16:51:00,
2013-04-04 10:52:00,60.0,50.0,30.15,NNW,337,3.0,3.0,70,0.00,,,0.00,TxWx,2013-04-04 16:52:00,
2013-04-04 10:53:00,60.0,50.0,30.15,North,0,8.0,10.0,71,0.00,,,0.00,TxWx,2013-04-04 16:53:00,
2013-04-04 10:54:00,60.0,50.0,30.15,NNW,337,11.0,13.0,71,0.00,,,0.00,TxWx,2013-04-04 16:54:00,
2013-04-04 10:57:00,60.0,50.0,30.16,North,0,10.0,12.0,69,0.00,,,0.00,TxWx,2013-04-04 16:57:00,
2013-04-04 10:58:00,60.0,50.0,30.16,West,270,6.0,8.0,71,0.00,,,0.00,TxWx,2013-04-04 16:58:00,
2013-04-04 11:00:00,60.0,50.0,30.15,NNW,337,6.0,7.0,70,0.00,,,0.00,TxWx,2013-04-04 17:00:00,
2013-04-04 11:03:00,60.0,50.0,30.15,NW,315,8.0,9.0,69,0.00,,,0.00,TxWx,2013-04-04 17:03:00,
2013-04-04 11:05:00,60.0,49.0,30.15,NNW,337,10.0,10.0,68,0.00,,,0.00,TxWx,2013-04-04 17:05:00,
2013-04-04 11:06:00,60.0,50.0,30.15,NNW,337,8.0,11.0,69,0.00,,,0.00,TxWx,2013-04-04 17:06:00,
2013-04-04 11:07:00,60.0,50.0,30.15,NNW,337,7.0,8.0,70,0.00,,,0.00,TxWx,2013-04-04 17:07:00,
2013-04-04 11:11:00,61.0,51.0,30.15,ENE,67,4.0,4.0,70,0.00,,,0.00,TxWx,2013-04-04 17:11:00,
2013-04-04 11:12:00,60.0,50.0,30.15,NNE,22,10.0,10.0,69,0.00,,,0.00,TxWx,2013-04-04 17:12:00,
2013-04-04 11:13:00,61.0,51.0,30.15,NNW,337,7.0,8.0,70,0.00,,,0.00,TxWx,2013-04-04 17:13:00,
2013-04-04 11:17:00,61.0,51.0,30.15,NW,315,11.0,11.0,69,0.00,,,0.00,TxWx,2013-04-04 17:17:00,
2013-04-04 11:18:00,62.0,51.0,30.15,NNE,22,5.0,7.0,69,0.00,,,0.00,TxWx,2013-04-04 17:18:00,
2013-04-04 11:19:00,61.0,50.0,30.15,NNW,337,11.0,11.0,67,0.00,,,0.00,TxWx,2013-04-04 17:19:00,
2013-04-04 11:22:00,61.0,50.0,30.14,NW,315,9.0,9.0,68,0.00,,,0.00,TxWx,2013-04-04 17:22:00,
2013-04-04 11:23:00,61.0,50.0,30.14,NNW,337,10.0,10.0,67,0.00,,,0.00,TxWx,2013-04-04 17:23:00,
2013-04-04 11:24:00,61.0,50.0,30.14,WNW,292,5.0,6.0,68,0.00,,,0.00,TxWx,2013-04-04 17:24:00,
2013-04-04 11:27:00,62.0,51.0,30.14,NNW,337,13.0,13.0,68,0.00,,,0.00,TxWx,2013-04-04 17:27:00,
2013-04-04 11:29:00,62.0,51.0,30.14,NNW,337,6.0,7.0,67,0.00,,,0.00,TxWx,2013-04-04 17:29:00,
2013-04-04 11:30:00,62.0,51.0,30.14,NNW,337,12.0,12.0,67,0.00,,,0.00,TxWx,2013-04-04 17:30:00,
2013-04-04 11:32:00,62.0,50.0,30.14,NNW,337,14.0,15.0,66,0.00,,,0.00,TxWx,2013-04-04 17:32:00,
2013-04-04 11:35:00,62.0,50.0,30.14,NNW,337,11.0,14.0,65,0.00,,,0.00,TxWx,2013-04-04 17:35:00,
2013-04-04 11:37:00,62.0,50.0,30.14,NW,315,8.0,8.0,66,0.00,,,0.00,TxWx,2013-04-04 17:37:00,
2013-04-04 11:38:00,63.0,52.0,30.13,WNW,292,6.0,6.0,67,0.00,,,0.00,TxWx,2013-04-04 17:38:00,
2013-04-04 11:41:00,63.0,51.0,30.13,North,0,9.0,9.0,65,0.00,,,0.00,TxWx,2013-04-04 17:41:00,
2013-04-04 11:42:00,63.0,51.0,30.13,North,0,9.0,9.0,65,0.00,,,0.00,TxWx,2013-04-04 17:42:00,
2013-04-04 11:43:00,62.0,49.0,30.13,NW,315,13.0,14.0,63,0.00,,,0.00,TxWx,2013-04-04 17:43:00,
2013-04-04 11:44:00,63.0,51.0,30.13,NE,45,6.0,7.0,65,0.00,,,0.00,TxWx,2013-04-04 17:44:00,
2013-04-04 11:47:00,62.0,49.0,30.13,NW,315,10.0,13.0,63,0.00,,,0.00,TxWx,2013-04-04 17:47:00,
2013-04-04 11:49:00,63.0,50.0,30.13,NNW,337,10.0,10.0,64,0.00,,,0.00,TxWx,2013-04-04 17:49:00,
2013-04-04 11:50:00,64.0,52.0,30.13,West,270,4.0,5.0,64,0.00,,,0.00,TxWx,2013-04-04 17:50:00,
2013-04-04 11:52:00,64.0,51.0,30.13,NNW,337,10.0,10.0,64,0.00,,,0.00,TxWx,2013-04-04 17:52:00,
2013-04-04 11:55:00,64.0,50.0,30.13,North,0,10.0,10.0,62,0.00,,,0.00,TxWx,2013-04-04 17:55:00,
2013-04-04 11:56:00,64.0,50.0,30.12,NNW,337,11.0,13.0,61,0.00,,,0.00,TxWx,2013-04-04 17:56:00,
2013-04-04 11:57:00,64.0,50.0,30.13,NNW,337,11.0,13.0,61,0.00,,,0.00,TxWx,2013-04-04 17:57:00,
2013-04-04 11:59:00,64.0,50.0,30.12,NNW,337,9.0,10.0,61,0.00,,,0.00,TxWx,2013-04-04 17:59:00,
2013-04-04 12:01:00,64.0,50.0,30.12,NNW,337,11.0,11.0,60,0.00,,,0.00,TxWx,2013-04-04 18:01:00,
2013-04-04 12:02:00,64.0,50.0,30.12,NW,315,10.0,11.0,61,0.00,,,0.00,TxWx,2013-04-04 18:02:00,
2013-04-04 12:03:00,64.0,50.0,30.12,WNW,292,14.0,17.0,61,0.00,,,0.00,TxWx,2013-04-04 18:03:00,
2013-04-04 12:05:00,65.0,51.0,30.12,NNE,22,3.0,3.0,61,0.00,,,0.00,TxWx,2013-04-04 18:05:00,
2013-04-04 12:07:00,65.0,50.0,30.12,NNW,337,18.0,18.0,59,0.00,,,0.00,TxWx,2013-04-04 18:07:00,
2013-04-04 12:08:00,65.0,50.0,30.12,NNE,22,6.0,6.0,59,0.00,,,0.00,TxWx,2013-04-04 18:08:00,
2013-04-04 12:09:00,65.0,50.0,30.12,NE,45,7.0,9.0,59,0.00,,,0.00,TxWx,2013-04-04 18:09:00,
2013-04-04 12:10:00,65.0,50.0,30.12,NE,45,8.0,8.0,59,0.00,,,0.00,TxWx,2013-04-04 18:10:00,
2013-04-04 12:12:00,65.0,50.0,30.12,NNW,337,9.0,11.0,58,0.00,,,0.00,TxWx,2013-04-04 18:12:00,
2013-04-04 12:14:00,65.0,50.0,30.12,WSW,247,6.0,8.0,59,0.00,,,0.00,TxWx,2013-04-04 18:14:00,
2013-04-04 12:15:00,64.0,49.0,30.11,North,0,11.0,13.0,58,0.00,,,0.00,TxWx,2013-04-04 18:15:00,
2013-04-04 12:17:00,65.0,51.0,30.11,NNE,22,8.0,8.0,60,0.00,,,0.00,TxWx,2013-04-04 18:17:00,
2013-04-04 12:18:00,66.0,52.0,30.11,West,270,4.0,5.0,60,0.00,,,0.00,TxWx,2013-04-04 18:18:00,
2013-04-04 12:19:00,66.0,51.0,30.11,NNE,22,13.0,16.0,59,0.00,,,0.00,TxWx,2013-04-04 18:19:00,
2013-04-04 12:21:00,66.0,51.0,30.11,NNE,22,10.0,14.0,58,0.00,,,0.00,TxWx,2013-04-04 18:21:00,
2013-04-04 12:23:00,65.0,50.0,30.11,NE,45,10.0,10.0,58,0.00,,,0.00,TxWx,2013-04-04 18:23:00,
2013-04-04 12:24:00,66.0,51.0,30.11,NE,45,8.0,8.0,59,0.00,,,0.00,TxWx,2013-04-04 18:24:00,
2013-04-04 12:25:00,66.0,51.0,30.11,WNW,292,4.0,5.0,59,0.00,,,0.00,TxWx,2013-04-04 18:25:00,
2013-04-04 12:27:00,66.0,51.0,30.11,NNW,337,6.0,6.0,58,0.00,,,0.00,TxWx,2013-04-04 18:27:00,
2013-04-04 12:28:00,66.0,51.0,30.11,WNW,292,6.0,6.0,59,0.00,,,0.00,TxWx,2013-04-04 18:28:00,
2013-04-04 12:30:00,67.0,52.0,30.10,NE,45,7.0,8.0,58,0.00,,,0.00,TxWx,2013-04-04 18:30:00,
2013-04-04 12:32:00,68.0,52.0,30.10,NNW,337,10.0,10.0,58,0.00,,,0.00,TxWx,2013-04-04 18:32:00,
2013-04-04 12:33:00,67.0,51.0,30.10,NE,45,7.0,9.0,57,0.00,,,0.00,TxWx,2013-04-04 18:33:00,
2013-04-04 12:36:00,67.0,51.0,30.10,NNE,22,5.0,6.0,57,0.00,,,0.00,TxWx,2013-04-04 18:36:00,
2013-04-04 12:37:00,67.0,51.0,30.10,NNE,22,11.0,11.0,56,0.00,,,0.00,TxWx,2013-04-04 18:37:00,
2013-04-04 12:40:00,67.0,51.0,30.10,North,0,6.0,6.0,56,0.00,,,0.00,TxWx,2013-04-04 18:40:00,
2013-04-04 12:41:00,67.0,50.0,30.10,NE,45,8.0,8.0,55,0.00,,,0.00,TxWx,2013-04-04 18:41:00,
2013-04-04 12:42:00,67.0,51.0,30.10,NNE,22,8.0,8.0,56,0.00,,,0.00,TxWx,2013-04-04 18:42:00,
2013-04-04 12:43:00,67.0,51.0,30.10,NNW,337,7.0,9.0,56,0.00,,,0.00,TxWx,2013-04-04 18:43:00,
2013-04-04 12:46:00,67.0,50.0,30.10,NNW,337,10.0,10.0,55,0.00,,,0.00,TxWx,2013-04-04 18:46:00,
2013-04-04 12:47:00,67.0,50.0,30.10,ENE,67,6.0,6.0,55,0.00,,,0.00,TxWx,2013-04-04 18:47:00,
2013-04-04 12:48:00,68.0,51.0,30.09,NNE,22,5.0,6.0,55,0.00,,,0.00,TxWx,2013-04-04 18:48:00,
2013-04-04 12:50:00,68.0,50.0,30.09,NNE,22,6.0,7.0,53,0.00,,,0.00,TxWx,2013-04-04 18:50:00,
2013-04-04 12:52:00,68.0,50.0,30.09,NNW,337,8.0,8.0,52,0.00,,,0.00,TxWx,2013-04-04 18:52:00,
2013-04-04 12:53:00,68.0,49.0,30.09,NNE,22,10.0,11.0,51,0.00,,,0.00,TxWx,2013-04-04 18:53:00,
2013-04-04 12:55:00,68.0,49.0,30.09,ESE,112,4.0,7.0,51,0.00,,,0.00,TxWx,2013-04-04 18:55:00,
2013-04-04 12:57:00,68.0,50.0,30.09,NNE,22,6.0,7.0,53,0.00,,,0.00,TxWx,2013-04-04 18:57:00,
2013-04-04 12:58:00,69.0,51.0,30.09,NNE,22,8.0,8.0,53,0.00,,,0.00,TxWx,2013-04-04 18:58:00,
2013-04-04 13:00:00,69.0,51.0,30.09,NNE,22,5.0,5.0,53,0.00,,,0.00,TxWx,2013-04-04 19:00:00,
2013-04-04 13:02:00,68.0,49.0,30.09,NNE,22,11.0,11.0,51,0.00,,,0.00,TxWx,2013-04-04 19:02:00,
2013-04-04 13:04:00,68.0,49.0,30.09,NNW,337,7.0,7.0,51,0.00,,,0.00,TxWx,2013-04-04 19:04:00,
2013-04-04 13:06:00,69.0,50.0,30.09,NW,315,8.0,8.0,51,0.00,,,0.00,TxWx,2013-04-04 19:06:00,
2013-04-04 13:07:00,69.0,50.0,30.08,NNE,22,6.0,6.0,51,0.00,,,0.00,TxWx,2013-04-04 19:07:00,
2013-04-04 13:08:00,69.0,50.0,30.08,NNE,22,6.0,6.0,51,0.00,,,0.00,TxWx,2013-04-04 19:08:00,
2013-04-04 13:11:00,69.0,50.0,30.08,NNE,22,10.0,10.0,51,0.00,,,0.00,TxWx,2013-04-04 19:11:00,
2013-04-04 13:14:00,69.0,49.0,30.08,NNW,337,6.0,7.0,50,0.00,,,0.00,TxWx,2013-04-04 19:14:00,
2013-04-04 13:16:00,69.0,50.0,30.08,NNE,22,4.0,5.0,50,0.00,,,0.00,TxWx,2013-04-04 19:16:00,
2013-04-04 13:17:00,69.0,49.0,30.08,North,0,11.0,11.0,49,0.00,,,0.00,TxWx,2013-04-04 19:17:00,
2013-04-04 13:19:00,69.0,49.0,30.08,NE,45,10.0,10.0,50,0.00,,,0.00,TxWx,2013-04-04 19:19:00,
2013-04-04 13:22:00,69.0,50.0,30.08,NE,45,6.0,8.0,52,0.00,,,0.00,TxWx,2013-04-04 19:22:00,
2013-04-04 13:23:00,70.0,51.0,30.08,NNE,22,9.0,9.0,51,0.00,,,0.00,TxWx,2013-04-04 19:23:00,
2013-04-04 13:24:00,70.0,51.0,30.07,NNE,22,8.0,8.0,51,0.00,,,0.00,TxWx,2013-04-04 19:24:00,
2013-04-04 13:27:00,69.0,48.0,30.07,North,0,8.0,9.0,48,0.00,,,0.00,TxWx,2013-04-04 19:27:00,
2013-04-04 13:28:00,69.0,49.0,30.07,NNE,22,6.0,6.0,49,0.00,,,0.00,TxWx,2013-04-04 19:28:00,
2013-04-04 13:29:00,70.0,51.0,30.07,ENE,67,3.0,5.0,51,0.00,,,0.00,TxWx,2013-04-04 19:29:00,
2013-04-04 13:31:00,70.0,50.0,30.07,NE,45,8.0,8.0,50,0.00,,,0.00,TxWx,2013-04-04 19:31:00,
2013-04-04 13:34:00,70.0,50.0,30.07,NW,315,12.0,12.0,49,0.00,,,0.00,TxWx,2013-04-04 19:34:00,
2013-04-04 13:35:00,70.0,50.0,30.07,NNW,337,6.0,7.0,49,0.00,,,0.00,TxWx,2013-04-04 19:35:00,
2013-04-04 13:37:00,70.0,47.0,30.07,NNW,337,13.0,13.0,45,0.00,,,0.00,TxWx,2013-04-04 19:37:00,
2013-04-04 13:40:00,70.0,48.0,30.07,North,0,10.0,11.0,46,0.00,,,0.00,TxWx,2013-04-04 19:40:00,
2013-04-04 13:41:00,70.0,47.0,30.07,NW,315,10.0,11.0,45,0.00,,,0.00,TxWx,2013-04-04 19:41:00,
2013-04-04 13:42:00,71.0,49.0,30.06,NW,315,3.0,3.0,46,0.00,,,0.00,TxWx,2013-04-04 19:42:00,
2013-04-04 13:43:00,71.0,49.0,30.07,NNE,22,8.0,8.0,46,0.00,,,0.00,TxWx,2013-04-04 19:43:00,
2013-04-04 13:45:00,71.0,49.0,30.07,NNE,22,10.0,10.0,47,0.00,,,0.00,TxWx,2013-04-04 19:45:00,
2013-04-04 13:48:00,71.0,49.0,30.06,NE,45,7.0,7.0,47,0.00,,,0.00,TxWx,2013-04-04 19:48:00,
2013-04-04 13:50:00,70.0,49.0,30.06,NE,45,7.0,10.0,47,0.00,,,0.00,TxWx,2013-04-04 19:50:00,
2013-04-04 13:51:00,71.0,49.0,30.06,West,270,3.0,3.0,46,0.00,,,0.00,TxWx,2013-04-04 19:51:00,
2013-04-04 13:55:00,72.0,49.0,30.06,North,0,8.0,10.0,44,0.00,,,0.00,TxWx,2013-04-04 19:55:00,
2013-04-04 13:56:00,71.0,47.0,30.06,NNE,22,5.0,5.0,43,0.00,,,0.00,TxWx,2013-04-04 19:56:00,
2013-04-04 14:00:00,71.0,47.0,30.06,ENE,67,7.0,9.0,43,0.00,,,0.00,TxWx,2013-04-04 20:00:00,
2013-04-04 14:02:00,71.0,46.0,30.06,NNW,337,10.0,10.0,42,0.00,,,0.00,TxWx,2013-04-04 20:02:00,
2013-04-04 14:05:00,72.0,47.0,30.06,NNW,337,13.0,15.0,42,0.00,,,0.00,TxWx,2013-04-04 20:05:00,
2013-04-04 14:07:00,72.0,48.0,30.06,NNE,22,6.0,7.0,43,0.00,,,0.00,TxWx,2013-04-04 20:07:00,
2013-04-04 14:08:00,72.0,48.0,30.06,NNW,337,18.0,18.0,42,0.00,,,0.00,TxWx,2013-04-04 20:08:00,
2013-04-04 14:11:00,72.0,48.0,30.05,NNE,22,10.0,11.0,43,0.00,,,0.00,TxWx,2013-04-04 20:11:00,
2013-04-04 14:12:00,71.0,47.0,30.05,NNE,22,14.0,14.0,42,0.00,,,0.00,TxWx,2013-04-04 20:12:00,
2013-04-04 14:14:00,72.0,48.0,30.06,North,0,11.0,11.0,42,0.00,,,0.00,TxWx,2013-04-04 20:14:00,
2013-04-04 14:15:00,72.0,48.0,30.05,North,0,5.0,6.0,43,0.00,,,0.00,TxWx,2013-04-04 20:15:00,
2013-04-04 14:17:00,72.0,47.0,30.05,North,0,11.0,11.0,42,0.00,,,0.00,TxWx,2013-04-04 20:17:00,
2013-04-04 14:19:00,72.0,48.0,30.05,WNW,292,5.0,5.0,42,0.00,,,0.00,TxWx,2013-04-04 20:19:00,
2013-04-04 14:20:00,72.0,47.0,30.05,NW,315,9.0,9.0,42,0.00,,,0.00,TxWx,2013-04-04 20:20:00,
2013-04-04 14:24:00,72.0,48.0,30.05,NNW,337,8.0,8.0,42,0.00,,,0.00,TxWx,2013-04-04 20:24:00,
2013-04-04 14:26:00,72.0,47.0,30.05,North,0,11.0,11.0,42,0.00,,,0.00,TxWx,2013-04-04 20:26:00,
2013-04-04 14:27:00,72.0,47.0,30.05,North,0,5.0,6.0,42,0.00,,,0.00,TxWx,2013-04-04 20:27:00,
2013-04-04 14:29:00,72.0,48.0,30.05,North,0,5.0,5.0,42,0.00,,,0.00,TxWx,2013-04-04 20:29:00,
2013-04-04 14:30:00,72.0,48.0,30.05,NNW,337,13.0,13.0,42,0.00,,,0.00,TxWx,2013-04-04 20:30:00,
2013-04-04 14:31:00,72.0,47.0,30.05,North,0,9.0,11.0,42,0.00,,,0.00,TxWx,2013-04-04 20:31:00,
2013-04-04 14:32:00,72.0,47.0,30.05,NNW,337,10.0,12.0,41,0.00,,,0.00,TxWx,2013-04-04 20:32:00,
2013-04-04 14:35:00,72.0,47.0,30.05,NE,45,13.0,14.0,41,0.00,,,0.00,TxWx,2013-04-04 20:35:00,
2013-04-04 14:37:00,72.0,47.0,30.05,NNE,22,8.0,9.0,41,0.00,,,0.00,TxWx,2013-04-04 20:37:00,
2013-04-04 14:39:00,73.0,48.0,30.05,NNE,22,7.0,7.0,42,0.00,,,0.00,TxWx,2013-04-04 20:39:00,
2013-04-04 14:43:00,72.0,48.0,30.05,North,0,10.0,10.0,42,0.00,,,0.00,TxWx,2013-04-04 20:43:00,
2013-04-04 14:44:00,73.0,50.0,30.05,East,90,5.0,7.0,44,0.00,,,0.00,TxWx,2013-04-04 20:44:00,
2013-04-04 14:45:00,73.0,51.0,30.04,NE,45,12.0,13.0,46,0.00,,,0.00,TxWx,2013-04-04 20:45:00,
2013-04-04 14:49:00,73.0,47.0,30.04,NNE,22,12.0,13.0,40,0.00,,,0.00,TxWx,2013-04-04 20:49:00,
2013-04-04 14:50:00,73.0,48.0,30.04,ENE,67,5.0,5.0,42,0.00,,,0.00,TxWx,2013-04-04 20:50:00,
2013-04-04 14:51:00,73.0,48.0,30.04,North,0,10.0,10.0,42,0.00,,,0.00,TxWx,2013-04-04 20:51:00,
2013-04-04 14:52:00,73.0,49.0,30.04,NE,45,6.0,7.0,43,0.00,,,0.00,TxWx,2013-04-04 20:52:00,
2013-04-04 14:54:00,73.0,49.0,30.04,NW,315,6.0,7.0,43,0.00,,,0.00,TxWx,2013-04-04 20:54:00,
2013-04-04 14:57:00,73.0,47.0,30.04,NE,45,6.0,8.0,40,0.00,,,0.00,TxWx,2013-04-04 20:57:00,
2013-04-04 15:00:00,73.0,49.0,30.04,NE,45,5.0,5.0,43,0.00,,,0.00,TxWx,2013-04-04 21:00:00,
2013-04-04 15:01:00,73.0,49.0,30.04,NE,45,5.0,5.0,43,0.00,,,0.00,TxWx,2013-04-04 21:01:00,
2013-04-04 15:02:00,73.0,47.0,30.03,NNW,337,10.0,10.0,40,0.00,,,0.00,TxWx,2013-04-04 21:02:00,
2013-04-04 15:05:00,73.0,46.0,30.04,NNE,22,10.0,10.0,39,0.00,,,0.00,TxWx,2013-04-04 21:05:00,
2013-04-04 15:08:00,73.0,47.0,30.04,NNW,337,8.0,8.0,39,0.00,,,0.00,TxWx,2013-04-04 21:08:00,
2013-04-04 15:10:00,73.0,47.0,30.04,NE,45,8.0,12.0,40,0.00,,,0.00,TxWx,2013-04-04 21:10:00,
2013-04-04 15:13:00,73.0,47.0,30.04,North,0,7.0,7.0,40,0.00,,,0.00,TxWx,2013-04-04 21:13:00,
2013-04-04 15:14:00,73.0,47.0,30.04,NNE,22,14.0,16.0,40,0.00,,,0.00,TxWx,2013-04-04 21:14:00,
2013-04-04 15:15:00,73.0,47.0,30.04,NNE,22,14.0,16.0,39,0.00,,,0.00,TxWx,2013-04-04 21:15:00,
2013-04-04 15:19:00,73.0,46.0,30.04,North,0,11.0,11.0,39,0.00,,,0.00,TxWx,2013-04-04 21:19:00,
2013-04-04 15:20:00,73.0,47.0,30.03,NNE,22,11.0,11.0,40,0.00,,,0.00,TxWx,2013-04-04 21:20:00,
2013-04-04 15:21:00,73.0,48.0,30.03,North,0,10.0,11.0,41,0.00,,,0.00,TxWx,2013-04-04 21:21:00,
2013-04-04 15:22:00,73.0,49.0,30.03,North,0,14.0,14.0,43,0.00,,,0.00,TxWx,2013-04-04 21:22:00,
2013-04-04 15:25:00,73.0,46.0,30.03,NNW,337,6.0,8.0,39,0.00,,,0.00,TxWx,2013-04-04 21:25:00,
2013-04-04 15:26:00,73.0,47.0,30.03,NNE,22,10.0,11.0,39,0.00,,,0.00,TxWx,2013-04-04 21:26:00,
2013-04-04 15:27:00,73.0,47.0,30.03,WNW,292,5.0,5.0,39,0.00,,,0.00,TxWx,2013-04-04 21:27:00,
2013-04-04 15:30:00,73.0,47.0,30.03,NNE,22,6.0,6.0,39,0.00,,,0.00,TxWx,2013-04-04 21:30:00,
2013-04-04 15:32:00,73.0,47.0,30.03,NNE,22,10.0,12.0,40,0.00,,,0.00,TxWx,2013-04-04 21:32:00,
2013-04-04 15:33:00,73.0,48.0,30.03,NE,45,6.0,6.0,42,0.00,,,0.00,TxWx,2013-04-04 21:33:00,
2013-04-04 15:35:00,73.0,48.0,30.03,ENE,67,6.0,8.0,41,0.00,,,0.00,TxWx,2013-04-04 21:35:00,
2013-04-04 15:37:00,73.0,49.0,30.03,NNW,337,6.0,7.0,43,0.00,,,0.00,TxWx,2013-04-04 21:37:00,
2013-04-04 15:38:00,74.0,50.0,30.03,NNE,22,8.0,10.0,43,0.00,,,0.00,TxWx,2013-04-04 21:38:00,
2013-04-04 15:40:00,73.0,47.0,30.03,NNE,22,10.0,10.0,40,0.00,,,0.00,TxWx,2013-04-04 21:40:00,
2013-04-04 15:42:00,73.0,47.0,30.03,NE,45,14.0,14.0,40,0.00,,,0.00,TxWx,2013-04-04 21:42:00,
2013-04-04 15:45:00,73.0,48.0,30.03,NNE,22,6.0,8.0,42,0.00,,,0.00,TxWx,2013-04-04 21:45:00,
2013-04-04 15:46:00,73.0,49.0,30.03,NNE,22,11.0,11.0,43,0.00,,,0.00,TxWx,2013-04-04 21:46:00,
2013-04-04 15:47:00,73.0,49.0,30.03,NNE,22,6.0,6.0,43,0.00,,,0.00,TxWx,2013-04-04 21:47:00,
2013-04-04 15:48:00,73.0,49.0,30.03,NE,45,9.0,10.0,43,0.00,,,0.00,TxWx,2013-04-04 21:48:00,
2013-04-04 15:51:00,73.0,47.0,30.03,NNW,337,6.0,6.0,40,0.00,,,0.00,TxWx,2013-04-04 21:51:00,
2013-04-04 15:55:00,73.0,48.0,30.03,NNE,22,13.0,13.0,42,0.00,,,0.00,TxWx,2013-04-04 21:55:00,
2013-04-04 15:57:00,73.0,48.0,30.03,North,0,13.0,16.0,41,0.00,,,0.00,TxWx,2013-04-04 21:57:00,
2013-04-04 16:01:00,73.0,49.0,30.03,NE,45,7.0,7.0,44,0.00,,,0.00,TxWx,2013-04-04 22:01:00,
2013-04-04 16:02:00,73.0,50.0,30.03,NNW,337,6.0,11.0,45,0.00,,,0.00,TxWx,2013-04-04 22:02:00,
2013-04-04 16:03:00,73.0,49.0,30.03,NNE,22,14.0,15.0,43,0.00,,,0.00,TxWx,2013-04-04 22:03:00,
2013-04-04 16:06:00,73.0,47.0,30.03,North,0,6.0,6.0,40,0.00,,,0.00,TxWx,2013-04-04 22:06:00,
2013-04-04 16:08:00,73.0,47.0,30.02,NNW,337,5.0,5.0,40,0.00,,,0.00,TxWx,2013-04-04 22:08:00,
2013-04-04 16:09:00,73.0,47.0,30.02,NNE,22,6.0,8.0,39,0.00,,,0.00,TxWx,2013-04-04 22:09:00,
2013-04-04 16:11:00,73.0,47.0,30.02,NNE,22,16.0,16.0,40,0.00,,,0.00,TxWx,2013-04-04 22:11:00,
2013-04-04 16:12:00,73.0,48.0,30.02,NNE,22,5.0,6.0,42,0.00,,,0.00,TxWx,2013-04-04 22:12:00,
2013-04-04 16:13:00,73.0,48.0,30.02,NE,45,10.0,13.0,41,0.00,,,0.00,TxWx,2013-04-04 22:13:00,
2013-04-04 16:15:00,73.0,48.0,30.02,NE,45,11.0,13.0,41,0.00,,,0.00,TxWx,2013-04-04 22:15:00,
2013-04-04 16:17:00,73.0,48.0,30.02,NNE,22,11.0,11.0,42,0.00,,,0.00,TxWx,2013-04-04 22:17:00,
2013-04-04 16:18:00,73.0,47.0,30.02,North,0,10.0,10.0,40,0.00,,,0.00,TxWx,2013-04-04 22:18:00,
2013-04-04 16:19:00,73.0,47.0,30.02,NW,315,14.0,14.0,39,0.00,,,0.00,TxWx,2013-04-04 22:19:00,
2013-04-04 16:21:00,73.0,47.0,30.02,North,0,12.0,13.0,40,0.00,,,0.00,TxWx,2013-04-04 22:21:00,
2013-04-04 16:23:00,73.0,46.0,30.02,NE,45,8.0,11.0,39,0.00,,,0.00,TxWx,2013-04-04 22:23:00,
2013-04-04 16:24:00,73.0,47.0,30.02,NE,45,10.0,10.0,39,0.00,,,0.00,TxWx,2013-04-04 22:24:00,
2013-04-04 16:25:00,73.0,46.0,30.02,North,0,11.0,11.0,38,0.00,,,0.00,TxWx,2013-04-04 22:25:00,
2013-04-04 16:26:00,74.0,47.0,30.02,NNW,337,6.0,6.0,39,0.00,,,0.00,TxWx,2013-04-04 22:26:00,
2013-04-04 16:29:00,74.0,47.0,30.02,North,0,6.0,6.0,39,0.00,,,0.00,TxWx,2013-04-04 22:29:00,
2013-04-04 16:31:00,74.0,47.0,30.02,North,0,6.0,8.0,39,0.00,,,0.00,TxWx,2013-04-04 22:31:00,
2013-04-04 16:32:00,74.0,47.0,30.02,North,0,6.0,6.0,39,0.00,,,0.00,TxWx,2013-04-04 22:32:00,
2013-04-04 16:34:00,74.0,47.0,30.02,NNE,22,7.0,7.0,39,0.00,,,0.00,TxWx,2013-04-04 22:34:00,
2013-04-04 16:35:00,74.0,47.0,30.02,NNW,337,9.0,10.0,39,0.00,,,0.00,TxWx,2013-04-04 22:35:00,
2013-04-04 16:37:00,74.0,48.0,30.02,NNW,337,5.0,6.0,40,0.00,,,0.00,TxWx,2013-04-04 22:37:00,
2013-04-04 16:39:00,73.0,47.0,30.02,North,0,13.0,13.0,40,0.00,,,0.00,TxWx,2013-04-04 22:39:00,
2013-04-04 16:40:00,73.0,48.0,30.02,NNE,22,11.0,11.0,42,0.00,,,0.00,TxWx,2013-04-04 22:40:00,
2013-04-04 16:44:00,73.0,47.0,30.02,North,0,9.0,9.0,40,0.00,,,0.00,TxWx,2013-04-04 22:44:00,
2013-04-04 16:45:00,73.0,47.0,30.02,NNE,22,10.0,11.0,39,0.00,,,0.00,TxWx,2013-04-04 22:45:00,
2013-04-04 16:47:00,73.0,48.0,30.02,NNW,337,10.0,11.0,42,0.00,,,0.00,TxWx,2013-04-04 22:47:00,
2013-04-04 16:49:00,73.0,47.0,30.02,NNE,22,10.0,11.0,39,0.00,,,0.00,TxWx,2013-04-04 22:49:00,
2013-04-04 16:51:00,73.0,47.0,30.02,North,0,8.0,11.0,39,0.00,,,0.00,TxWx,2013-04-04 22:51:00,
2013-04-04 16:54:00,73.0,48.0,30.02,NE,45,13.0,13.0,41,0.00,,,0.00,TxWx,2013-04-04 22:54:00,
2013-04-04 16:56:00,73.0,48.0,30.02,NNE,22,13.0,13.0,41,0.00,,,0.00,TxWx,2013-04-04 22:56:00,
2013-04-04 16:59:00,73.0,48.0,30.02,NNW,337,9.0,11.0,42,0.00,,,0.00,TxWx,2013-04-04 22:59:00,
2013-04-04 17:01:00,72.0,47.0,30.02,NE,45,14.0,14.0,41,0.00,,,0.00,TxWx,2013-04-04 23:01:00,
2013-04-04 17:02:00,72.0,47.0,30.03,North,0,11.0,12.0,42,0.00,,,0.00,TxWx,2013-04-04 23:02:00,
2013-04-04 17:05:00,72.0,48.0,30.03,NNW,337,10.0,11.0,42,0.00,,,0.00,TxWx,2013-04-04 23:05:00,
2013-04-04 17:07:00,72.0,49.0,30.02,ENE,67,8.0,8.0,44,0.00,,,0.00,TxWx,2013-04-04 23:07:00,
2013-04-04 17:08:00,72.0,49.0,30.03,North,0,8.0,11.0,44,0.00,,,0.00,TxWx,2013-04-04 23:08:00,
2013-04-04 17:09:00,72.0,49.0,30.02,ENE,67,14.0,14.0,44,0.00,,,0.00,TxWx,2013-04-04 23:09:00,
2013-04-04 17:10:00,72.0,50.0,30.03,NNE,22,11.0,11.0,46,0.00,,,0.00,TxWx,2013-04-04 23:10:00,
2013-04-04 17:12:00,73.0,49.0,30.02,North,0,6.0,6.0,44,0.00,,,0.00,TxWx,2013-04-04 23:12:00,
2013-04-04 17:15:00,73.0,47.0,30.03,NE,45,5.0,7.0,40,0.00,,,0.00,TxWx,2013-04-04 23:15:00,
2013-04-04 17:17:00,73.0,48.0,30.03,NNE,22,11.0,14.0,41,0.00,,,0.00,TxWx,2013-04-04 23:17:00,
2013-04-04 17:19:00,73.0,48.0,30.03,NNE,22,10.0,10.0,42,0.00,,,0.00,TxWx,2013-04-04 23:19:00,
2013-04-04 17:20:00,73.0,48.0,30.03,NE,45,3.0,3.0,42,0.00,,,0.00,TxWx,2013-04-04 23:20:00,
2013-04-04 17:21:00,73.0,48.0,30.03,NNE,22,6.0,8.0,41,0.00,,,0.00,TxWx,2013-04-04 23:21:00,
2013-04-04 17:22:00,73.0,48.0,30.03,NNE,22,6.0,8.0,41,0.00,,,0.00,TxWx,2013-04-04 23:22:00,
2013-04-04 17:25:00,73.0,49.0,30.03,NNE,22,5.0,7.0,43,0.00,,,0.00,TxWx,2013-04-04 23:25:00,
2013-04-04 17:26:00,73.0,50.0,30.03,NE,45,5.0,5.0,44,0.00,,,0.00,TxWx,2013-04-04 23:26:00,
2013-04-04 17:30:00,72.0,50.0,30.03,NE,45,9.0,10.0,46,0.00,,,0.00,TxWx,2013-04-04 23:30:00,
2013-04-04 17:31:00,72.0,50.0,30.03,North,0,8.0,8.0,46,0.00,,,0.00,TxWx,2013-04-04 23:31:00,
2013-04-04 17:32:00,72.0,49.0,30.03,NNW,337,8.0,8.0,45,0.00,,,0.00,TxWx,2013-04-04 23:32:00,
2013-04-04 17:36:00,72.0,49.0,30.03,East,90,11.0,12.0,44,0.00,,,0.00,TxWx,2013-04-04 23:36:00,
2013-04-04 17:37:00,72.0,49.0,30.03,NE,45,5.0,6.0,44,0.00,,,0.00,TxWx,2013-04-04 23:37:00,
2013-04-04 17:38:00,72.0,49.0,30.03,NNE,22,7.0,9.0,44,0.00,,,0.00,TxWx,2013-04-04 23:38:00,
2013-04-04 17:39:00,72.0,49.0,30.03,NNE,22,11.0,12.0,44,0.00,,,0.00,TxWx,2013-04-04 23:39:00,
2013-04-04 17:42:00,72.0,49.0,30.03,North,0,8.0,8.0,45,0.00,,,0.00,TxWx,2013-04-04 23:42:00,
2013-04-04 17:43:00,72.0,50.0,30.03,NNE,22,11.0,13.0,47,0.00,,,0.00,TxWx,2013-04-04 23:43:00,
2013-04-04 17:45:00,72.0,49.0,30.03,NNE,22,13.0,13.0,44,0.00,,,0.00,TxWx,2013-04-04 23:45:00,
2013-04-04 17:46:00,72.0,48.0,30.03,ESE,112,7.0,11.0,43,0.00,,,0.00,TxWx,2013-04-04 23:46:00,
2013-04-04 17:47:00,72.0,48.0,30.03,North,0,10.0,12.0,42,0.00,,,0.00,TxWx,2013-04-04 23:47:00,
2013-04-04 17:49:00,72.0,48.0,30.03,North,0,6.0,7.0,42,0.00,,,0.00,TxWx,2013-04-04 23:49:00,
2013-04-04 17:51:00,72.0,48.0,30.03,North,0,6.0,7.0,42,0.00,,,0.00,TxWx,2013-04-04 23:51:00,
2013-04-04 17:53:00,72.0,48.0,30.03,NNW,337,8.0,8.0,43,0.00,,,0.00,TxWx,2013-04-04 23:53:00,
2013-04-04 17:54:00,72.0,48.0,30.03,NNE,22,10.0,10.0,43,0.00,,,0.00,TxWx,2013-04-04 23:54:00,
2013-04-04 17:55:00,72.0,48.0,30.03,NNE,22,9.0,12.0,43,0.00,,,0.00,TxWx,2013-04-04 23:55:00,
2013-04-04 17:56:00,72.0,48.0,30.03,NNE,22,8.0,8.0,43,0.00,,,0.00,TxWx,2013-04-04 23:56:00,
2013-04-04 17:59:00,72.0,49.0,30.03,North,0,7.0,8.0,45,0.00,,,0.00,TxWx,2013-04-04 23:59:00,
2013-04-04 18:01:00,72.0,48.0,30.03,NNW,337,10.0,14.0,43,0.00,,,0.00,TxWx,2013-04-05 00:01:00,
2013-04-04 18:02:00,72.0,47.0,30.04,NNW,337,11.0,12.0,42,0.00,,,0.00,TxWx,2013-04-05 00:02:00,
2013-04-04 18:04:00,72.0,49.0,30.04,NNE,22,10.0,10.0,44,0.00,,,0.00,TxWx,2013-04-05 00:04:00,
2013-04-04 18:06:00,72.0,49.0,30.04,NNE,22,6.0,6.0,45,0.00,,,0.00,TxWx,2013-04-05 00:06:00,
2013-04-04 18:08:00,72.0,49.0,30.04,North,0,8.0,9.0,45,0.00,,,0.00,TxWx,2013-04-05 00:08:00,
2013-04-04 18:09:00,72.0,50.0,30.04,North,0,7.0,7.0,46,0.00,,,0.00,TxWx,2013-04-05 00:09:00,
2013-04-04 18:10:00,72.0,49.0,30.03,NNE,22,9.0,10.0,45,0.00,,,0.00,TxWx,2013-04-05 00:10:00,
2013-04-04 18:13:00,71.0,47.0,30.03,NNE,22,9.0,10.0,43,0.00,,,0.00,TxWx,2013-04-05 00:13:00,
2013-04-04 18:14:00,71.0,48.0,30.04,NNE,22,8.0,10.0,44,0.00,,,0.00,TxWx,2013-04-05 00:14:00,
2013-04-04 18:16:00,71.0,49.0,30.04,NNE,22,8.0,10.0,45,0.00,,,0.00,TxWx,2013-04-05 00:16:00,
2013-04-04 18:18:00,71.0,49.0,30.04,NNE,22,9.0,9.0,47,0.00,,,0.00,TxWx,2013-04-05 00:18:00,
2013-04-04 18:19:00,71.0,50.0,30.04,NNW,337,6.0,7.0,47,0.00,,,0.00,TxWx,2013-04-05 00:19:00,
2013-04-04 18:20:00,71.0,51.0,30.04,North,0,7.0,8.0,49,0.00,,,0.00,TxWx,2013-04-05 00:20:00,
2013-04-04 18:23:00,71.0,51.0,30.04,NE,45,6.0,6.0,49,0.00,,,0.00,TxWx,2013-04-05 00:23:00,
2013-04-04 18:24:00,71.0,51.0,30.04,NNE,22,11.0,11.0,49,0.00,,,0.00,TxWx,2013-04-05 00:24:00,
2013-04-04 18:25:00,71.0,51.0,30.04,NNE,22,5.0,5.0,49,0.00,,,0.00,TxWx,2013-04-05 00:25:00,
2013-04-04 18:26:00,71.0,50.0,30.04,NNE,22,5.0,5.0,48,0.00,,,0.00,TxWx,2013-04-05 00:26:00,
2013-04-04 18:28:00,71.0,48.0,30.04,NNE,22,10.0,11.0,45,0.00,,,0.00,TxWx,2013-04-05 00:28:00,
2013-04-04 18:30:00,71.0,49.0,30.04,North,0,6.0,8.0,45,0.00,,,0.00,TxWx,2013-04-05 00:30:00,
2013-04-04 18:34:00,71.0,48.0,30.04,NNW,337,4.0,5.0,44,0.00,,,0.00,TxWx,2013-04-05 00:34:00,
2013-04-04 18:35:00,71.0,47.0,30.04,NNW,337,10.0,13.0,43,0.00,,,0.00,TxWx,2013-04-05 00:35:00,
2013-04-04 18:37:00,71.0,47.0,30.04,North,0,10.0,12.0,43,0.00,,,0.00,TxWx,2013-04-05 00:37:00,
2013-04-04 18:40:00,71.0,49.0,30.04,NNE,22,5.0,6.0,46,0.00,,,0.00,TxWx,2013-04-05 00:40:00,
2013-04-04 18:41:00,71.0,50.0,30.04,NNE,22,9.0,10.0,48,0.00,,,0.00,TxWx,2013-04-05 00:41:00,
2013-04-04 18:42:00,71.0,51.0,30.05,NE,45,7.0,7.0,49,0.00,,,0.00,TxWx,2013-04-05 00:42:00,
2013-04-04 18:44:00,71.0,51.0,30.04,North,0,10.0,11.0,49,0.00,,,0.00,TxWx,2013-04-05 00:44:00,
2013-04-04 18:46:00,71.0,50.0,30.04,NNE,22,6.0,8.0,48,0.00,,,0.00,TxWx,2013-04-05 00:46:00,
2013-04-04 18:47:00,71.0,49.0,30.04,North,0,8.0,9.0,47,0.00,,,0.00,TxWx,2013-04-05 00:47:00,
2013-04-04 18:48:00,71.0,50.0,30.05,NNW,337,4.0,4.0,48,0.00,,,0.00,TxWx,2013-04-05 00:48:00,
2013-04-04 18:52:00,70.0,50.0,30.05,NNE,22,10.0,10.0,49,0.00,,,0.00,TxWx,2013-04-05 00:52:00,
2013-04-04 18:53:00,70.0,50.0,30.04,NE,45,7.0,7.0,50,0.00,,,0.00,TxWx,2013-04-05 00:53:00,
2013-04-04 18:56:00,70.0,50.0,30.04,NNE,22,8.0,10.0,49,0.00,,,0.00,TxWx,2013-04-05 00:56:00,
2013-04-04 18:57:00,70.0,51.0,30.05,NNE,22,10.0,10.0,51,0.00,,,0.00,TxWx,2013-04-05 00:57:00,
2013-04-04 18:58:00,70.0,52.0,30.05,NNE,22,6.0,7.0,52,0.00,,,0.00,TxWx,2013-04-05 00:58:00,
2013-04-04 18:59:00,70.0,51.0,30.05,NNE,22,8.0,10.0,51,0.00,,,0.00,TxWx,2013-04-05 00:59:00,
2013-04-04 19:02:00,70.0,51.0,30.05,NNE,22,11.0,11.0,51,0.00,,,0.00,TxWx,2013-04-05 01:02:00,
2013-04-04 19:03:00,70.0,51.0,30.05,NNE,22,10.0,10.0,51,0.00,,,0.00,TxWx,2013-04-05 01:03:00,
2013-04-04 19:04:00,70.0,51.0,30.05,North,0,11.0,11.0,51,0.00,,,0.00,TxWx,2013-04-05 01:04:00,
2013-04-04 19:07:00,70.0,51.0,30.05,NNE,22,9.0,11.0,52,0.00,,,0.00,TxWx,2013-04-05 01:07:00,
2013-04-04 19:08:00,70.0,52.0,30.05,NE,45,7.0,8.0,53,0.00,,,0.00,TxWx,2013-04-05 01:08:00,
2013-04-04 19:09:00,70.0,51.0,30.05,NNE,22,8.0,9.0,52,0.00,,,0.00,TxWx,2013-04-05 01:09:00,
2013-04-04 19:11:00,70.0,52.0,30.05,NE,45,10.0,10.0,53,0.00,,,0.00,TxWx,2013-04-05 01:11:00,
2013-04-04 19:13:00,70.0,52.0,30.05,NE,45,11.0,11.0,53,0.00,,,0.00,TxWx,2013-04-05 01:13:00,
2013-04-04 19:14:00,70.0,52.0,30.05,NNE,22,8.0,8.0,52,0.00,,,0.00,TxWx,2013-04-05 01:14:00,
2013-04-04 19:15:00,70.0,52.0,30.05,NNE,22,7.0,7.0,53,0.00,,,0.00,TxWx,2013-04-05 01:15:00,
2013-04-04 19:17:00,70.0,53.0,30.05,NNE,22,11.0,15.0,56,0.00,,,0.00,TxWx,2013-04-05 01:17:00,
2013-04-04 19:19:00,70.0,52.0,30.05,ENE,67,6.0,11.0,54,0.00,,,0.00,TxWx,2013-04-05 01:19:00,
2013-04-04 19:20:00,69.0,52.0,30.05,ENE,67,6.0,8.0,54,0.00,,,0.00,TxWx,2013-04-05 01:20:00,
2013-04-04 19:22:00,69.0,50.0,30.05,NE,45,10.0,13.0,52,0.00,,,0.00,TxWx,2013-04-05 01:22:00,
2013-04-04 19:25:00,69.0,50.0,30.05,ENE,67,8.0,9.0,52,0.00,,,0.00,TxWx,2013-04-05 01:25:00,
2013-04-04 19:27:00,69.0,51.0,30.06,NE,45,8.0,8.0,54,0.00,,,0.00,TxWx,2013-04-05 01:27:00,
2013-04-04 19:29:00,69.0,50.0,30.06,NE,45,10.0,12.0,52,0.00,,,0.00,TxWx,2013-04-05 01:29:00,
2013-04-04 19:30:00,69.0,20.0,30.06,NNE,22,14.0,15.0,52,0.00,,,0.00,TxWx,2013-04-05 01:30:00,
2013-04-04 19:32:00,69.0,51.0,30.06,NE,45,12.0,13.0,53,0.00,,,0.00,TxWx,2013-04-05 01:32:00,
2013-04-04 19:35:00,68.0,51.0,30.06,ENE,67,14.0,14.0,55,0.00,,,0.00,TxWx,2013-04-05 01:35:00,
2013-04-04 19:37:00,68.0,50.0,30.06,NNE,22,14.0,14.0,54,0.00,,,0.00,TxWx,2013-04-05 01:37:00,
2013-04-04 19:38:00,68.0,51.0,30.06,NNE,22,13.0,13.0,54,0.00,,,0.00,TxWx,2013-04-05 01:38:00,
2013-04-04 19:43:00,68.0,50.0,30.06,NE,45,11.0,13.0,54,0.00,,,0.00,TxWx,2013-04-05 01:43:00,
2013-04-04 19:44:00,68.0,50.0,30.06,ENE,67,8.0,9.0,53,0.00,,,0.00,TxWx,2013-04-05 01:44:00,
2013-04-04 19:45:00,68.0,50.0,30.06,NNE,22,11.0,11.0,53,0.00,,,0.00,TxWx,2013-04-05 01:45:00,
2013-04-04 19:49:00,68.0,50.0,30.06,NE,45,13.0,14.0,53,0.00,,,0.00,TxWx,2013-04-05 01:49:00,
2013-04-04 19:50:00,68.0,51.0,30.06,NNE,22,10.0,11.0,54,0.00,,,0.00,TxWx,2013-04-05 01:50:00,
2013-04-04 19:55:00,68.0,51.0,30.07,ENE,67,6.0,8.0,55,0.00,,,0.00,TxWx,2013-04-05 01:55:00,
2013-04-04 19:57:00,67.0,50.0,30.07,North,0,6.0,6.0,55,0.00,,,0.00,TxWx,2013-04-05 01:57:00,
2013-04-04 20:01:00,67.0,52.0,30.07,ENE,67,16.0,16.0,58,0.00,,,0.00,TxWx,2013-04-05 02:01:00,
2013-04-04 20:02:00,67.0,51.0,30.07,ENE,67,12.0,13.0,57,0.00,,,0.00,TxWx,2013-04-05 02:02:00,
2013-04-04 20:03:00,67.0,52.0,30.08,NE,45,10.0,10.0,59,0.00,,,0.00,TxWx,2013-04-05 02:03:00,
2013-04-04 20:06:00,67.0,52.0,30.08,ENE,67,6.0,9.0,59,0.00,,,0.00,TxWx,2013-04-05 02:06:00,
2013-04-04 20:07:00,66.0,51.0,30.08,NE,45,19.0,19.0,58,0.00,,,0.00,TxWx,2013-04-05 02:07:00,
2013-04-04 20:12:00,66.0,51.0,30.08,NE,45,10.0,11.0,58,0.00,,,0.00,TxWx,2013-04-05 02:12:00,
2013-04-04 20:13:00,66.0,51.0,30.08,NE,45,7.0,9.0,60,0.00,,,0.00,TxWx,2013-04-05 02:13:00,
2013-04-04 20:14:00,66.0,51.0,30.08,East,90,9.0,12.0,58,0.00,,,0.00,TxWx,2013-04-05 02:14:00,
2013-04-04 20:17:00,66.0,51.0,30.08,NE,45,10.0,12.0,58,0.00,,,0.00,TxWx,2013-04-05 02:17:00,
2013-04-04 20:18:00,66.0,51.0,30.08,NNE,22,14.0,14.0,60,0.00,,,0.00,TxWx,2013-04-05 02:18:00,
2013-04-04 20:19:00,66.0,52.0,30.08,NE,45,12.0,13.0,61,0.00,,,0.00,TxWx,2013-04-05 02:19:00,
2013-04-04 20:23:00,66.0,52.0,30.08,ENE,67,13.0,13.0,60,0.00,,,0.00,TxWx,2013-04-05 02:23:00,
2013-04-04 20:24:00,65.0,51.0,30.08,ENE,67,8.0,17.0,61,0.00,,,0.00,TxWx,2013-04-05 02:24:00,
2013-04-04 20:25:00,66.0,52.0,30.08,ENE,67,13.0,13.0,61,0.00,,,0.00,TxWx,2013-04-05 02:25:00,
2013-04-04 20:27:00,65.0,51.0,30.09,ENE,67,10.0,11.0,62,0.00,,,0.00,TxWx,2013-04-05 02:27:00,
2013-04-04 20:29:00,65.0,51.0,30.08,ENE,67,12.0,12.0,61,0.00,,,0.00,TxWx,2013-04-05 02:29:00,
2013-04-04 20:30:00,65.0,51.0,30.09,ENE,67,7.0,8.0,61,0.00,,,0.00,TxWx,2013-04-05 02:30:00,
2013-04-04 20:34:00,65.0,51.0,30.09,NE,45,16.0,16.0,61,0.00,,,0.00,TxWx,2013-04-05 02:34:00,
2013-04-04 20:36:00,65.0,52.0,30.09,NE,45,8.0,12.0,63,0.00,,,0.00,TxWx,2013-04-05 02:36:00,
2013-04-04 20:41:00,65.0,51.0,30.09,NNE,22,9.0,13.0,60,0.00,,,0.00,TxWx,2013-04-05 02:41:00,
2013-04-04 20:42:00,65.0,51.0,30.09,ENE,67,7.0,7.0,61,0.00,,,0.00,TxWx,2013-04-05 02:42:00,
2013-04-04 20:43:00,65.0,51.0,30.09,NNE,22,7.0,7.0,61,0.00,,,0.00,TxWx,2013-04-05 02:43:00,
2013-04-04 20:48:00,64.0,50.0,30.10,ENE,67,14.0,14.0,62,0.00,,,0.00,TxWx,2013-04-05 02:48:00,
2013-04-04 20:49:00,64.0,50.0,30.09,ENE,67,7.0,8.0,60,0.00,,,0.00,TxWx,2013-04-05 02:49:00,
2013-04-04 20:51:00,64.0,50.0,30.09,NE,45,10.0,10.0,62,0.00,,,0.00,TxWx,2013-04-05 02:51:00,
2013-04-04 20:53:00,64.0,51.0,30.10,NNE,22,10.0,11.0,63,0.00,,,0.00,TxWx,2013-04-05 02:53:00,
2013-04-04 20:54:00,64.0,51.0,30.10,ENE,67,13.0,13.0,62,0.00,,,0.00,TxWx,2013-04-05 02:54:00,
2013-04-04 20:55:00,64.0,51.0,30.10,ENE,67,8.0,10.0,63,0.00,,,0.00,TxWx,2013-04-05 02:55:00,
2013-04-04 20:59:00,64.0,52.0,30.10,ENE,67,10.0,12.0,65,0.00,,,0.00,TxWx,2013-04-05 02:59:00,
2013-04-04 21:00:00,64.0,52.0,30.10,NE,45,15.0,16.0,66,0.00,,,0.00,TxWx,2013-04-05 03:00:00,
2013-04-04 21:05:00,64.0,51.0,30.11,NE,45,16.0,16.0,63,0.00,,,0.00,TxWx,2013-04-05 03:05:00,
2013-04-04 21:06:00,64.0,51.0,30.10,East,90,13.0,19.0,64,0.00,,,0.00,TxWx,2013-04-05 03:06:00,
2013-04-04 21:07:00,64.0,51.0,30.10,NNE,22,8.0,10.0,63,0.00,,,0.00,TxWx,2013-04-05 03:07:00,
2013-04-04 21:11:00,64.0,51.0,30.11,ENE,67,9.0,11.0,64,0.00,,,0.00,TxWx,2013-04-05 03:11:00,
2013-04-04 21:12:00,64.0,52.0,30.11,NNW,337,8.0,10.0,65,0.00,,,0.00,TxWx,2013-04-05 03:12:00,
2013-04-04 21:17:00,64.0,53.0,30.11,East,90,13.0,13.0,67,0.00,,,0.00,TxWx,2013-04-05 03:17:00,
2013-04-04 21:19:00,64.0,52.0,30.11,ENE,67,10.0,10.0,66,0.00,,,0.00,TxWx,2013-04-05 03:19:00,
2013-04-04 21:22:00,63.0,51.0,30.11,NNE,22,11.0,11.0,65,0.00,,,0.00,TxWx,2013-04-05 03:22:00,
2013-04-04 21:23:00,63.0,51.0,30.11,NNE,22,13.0,13.0,66,0.00,,,0.00,TxWx,2013-04-05 03:23:00,
2013-04-04 21:25:00,63.0,51.0,30.11,ESE,112,9.0,9.0,65,0.00,,,0.00,TxWx,2013-04-05 03:25:00,
2013-04-04 21:28:00,63.0,51.0,30.11,ESE,112,11.0,12.0,66,0.00,,,0.00,TxWx,2013-04-05 03:28:00,
2013-04-04 21:30:00,62.0,51.0,30.11,ENE,67,10.0,10.0,67,0.00,,,0.00,TxWx,2013-04-05 03:30:00,
2013-04-04 21:33:00,62.0,51.0,30.12,NE,45,8.0,11.0,67,0.00,,,0.00,TxWx,2013-04-05 03:33:00,
2013-04-04 21:34:00,62.0,51.0,30.11,ENE,67,10.0,10.0,67,0.00,,,0.00,TxWx,2013-04-05 03:34:00,
2013-04-04 21:35:00,62.0,51.0,30.12,NE,45,16.0,16.0,68,0.00,,,0.00,TxWx,2013-04-05 03:35:00,
2013-04-04 21:36:00,62.0,51.0,30.12,ENE,67,15.0,15.0,68,0.00,,,0.00,TxWx,2013-04-05 03:36:00,
2013-04-04 21:39:00,62.0,51.0,30.12,East,90,10.0,11.0,67,0.00,,,0.00,TxWx,2013-04-05 03:39:00,
2013-04-04 21:40:00,62.0,51.0,30.12,East,90,10.0,13.0,68,0.00,,,0.00,TxWx,2013-04-05 03:40:00,
2013-04-04 21:41:00,62.0,51.0,30.12,ESE,112,10.0,10.0,68,0.00,,,0.00,TxWx,2013-04-05 03:41:00,
2013-04-04 21:42:00,62.0,52.0,30.12,SE,135,4.0,5.0,70,0.00,,,0.00,TxWx,2013-04-05 03:42:00,
2013-04-04 21:44:00,62.0,52.0,30.12,NE,45,12.0,12.0,70,0.00,,,0.00,TxWx,2013-04-05 03:44:00,
2013-04-04 21:45:00,62.0,52.0,30.12,ENE,67,9.0,9.0,70,0.00,,,0.00,TxWx,2013-04-05 03:45:00,
2013-04-04 21:46:00,62.0,52.0,30.12,NE,45,9.0,11.0,70,0.00,,,0.00,TxWx,2013-04-05 03:46:00,
2013-04-04 21:49:00,62.0,51.0,30.12,NE,45,5.0,8.0,69,0.00,,,0.00,TxWx,2013-04-05 03:49:00,
2013-04-04 21:50:00,62.0,51.0,30.12,ENE,67,7.0,7.0,69,0.00,,,0.00,TxWx,2013-04-05 03:50:00,
2013-04-04 21:51:00,62.0,51.0,30.12,SE,135,3.0,3.0,69,0.00,,,0.00,TxWx,2013-04-05 03:51:00,
2013-04-04 21:55:00,61.0,50.0,30.12,NNE,22,8.0,8.0,68,0.00,,,0.00,TxWx,2013-04-05 03:55:00,
2013-04-04 21:56:00,61.0,50.0,30.12,NE,45,13.0,14.0,68,0.00,,,0.00,TxWx,2013-04-05 03:56:00,
2013-04-04 22:00:00,61.0,51.0,30.13,ENE,67,8.0,8.0,69,0.00,,,0.00,TxWx,2013-04-05 04:00:00,
2013-04-04 22:01:00,61.0,51.0,30.12,East,90,7.0,8.0,69,0.00,,,0.00,TxWx,2013-04-05 04:01:00,
2013-04-04 22:05:00,61.0,51.0,30.13,ENE,67,7.0,8.0,69,0.00,,,0.00,TxWx,2013-04-05 04:05:00,
2013-04-04 22:06:00,61.0,51.0,30.13,East,90,6.0,6.0,69,0.00,,,0.00,TxWx,2013-04-05 04:06:00,
2013-04-04 22:07:00,61.0,51.0,30.13,East,90,4.0,5.0,70,0.00,,,0.00,TxWx,2013-04-05 04:07:00,
2013-04-04 22:10:00,61.0,51.0,30.13,ENE,67,7.0,7.0,70,0.00,,,0.00,TxWx,2013-04-05 04:10:00,
2013-04-04 22:11:00,60.0,50.0,30.13,NNE,22,9.0,11.0,71,0.00,,,0.00,TxWx,2013-04-05 04:11:00,
2013-04-04 22:13:00,60.0,51.0,30.13,ENE,67,13.0,13.0,71,0.00,,,0.00,TxWx,2013-04-05 04:13:00,
2013-04-04 22:15:00,60.0,51.0,30.13,East,90,8.0,8.0,72,0.00,,,0.00,TxWx,2013-04-05 04:15:00,
2013-04-04 22:17:00,60.0,51.0,30.13,NE,45,8.0,10.0,72,0.00,,,0.00,TxWx,2013-04-05 04:17:00,
2013-04-04 22:18:00,60.0,51.0,30.13,ENE,67,5.0,5.0,73,0.00,,,0.00,TxWx,2013-04-05 04:18:00,
2013-04-04 22:20:00,60.0,51.0,30.13,ENE,67,6.0,6.0,72,0.00,,,0.00,TxWx,2013-04-05 04:20:00,
2013-04-04 22:24:00,60.0,51.0,30.13,ENE,67,6.0,8.0,74,0.00,,,0.00,TxWx,2013-04-05 04:24:00,
2013-04-04 22:25:00,60.0,51.0,30.13,ESE,112,6.0,8.0,74,0.00,,,0.00,TxWx,2013-04-05 04:25:00,
2013-04-04 22:26:00,60.0,51.0,30.13,NNE,22,13.0,14.0,73,0.00,,,0.00,TxWx,2013-04-05 04:26:00,
2013-04-04 22:27:00,60.0,51.0,30.13,NE,45,11.0,11.0,74,0.00,,,0.00,TxWx,2013-04-05 04:27:00,
2013-04-04 22:30:00,60.0,52.0,30.13,ENE,67,12.0,12.0,74,0.00,,,0.00,TxWx,2013-04-05 04:30:00,
2013-04-04 22:32:00,60.0,52.0,30.13,East,90,10.0,10.0,74,0.00,,,0.00,TxWx,2013-04-05 04:32:00,
2013-04-04 22:34:00,60.0,51.0,30.13,East,90,11.0,11.0,74,0.00,,,0.00,TxWx,2013-04-05 04:34:00,
2013-04-04 22:35:00,60.0,52.0,30.13,ENE,67,6.0,8.0,75,0.00,,,0.00,TxWx,2013-04-05 04:35:00,
2013-04-04 22:36:00,60.0,52.0,30.13,ESE,112,6.0,6.0,74,0.00,,,0.00,TxWx,2013-04-05 04:36:00,
2013-04-04 22:37:00,59.0,51.0,30.13,East,90,13.0,16.0,74,0.00,,,0.00,TxWx,2013-04-05 04:37:00,
2013-04-04 22:40:00,59.0,51.0,30.13,NE,45,8.0,9.0,74,0.00,,,0.00,TxWx,2013-04-05 04:40:00,
2013-04-04 22:42:00,59.0,51.0,30.13,East,90,6.0,9.0,74,0.00,,,0.00,TxWx,2013-04-05 04:42:00,
2013-04-04 22:45:00,59.0,51.0,30.13,ESE,112,5.0,5.0,74,0.00,,,0.00,TxWx,2013-04-05 04:45:00,
2013-04-04 22:47:00,59.0,51.0,30.14,ENE,67,11.0,11.0,75,0.00,,,0.00,TxWx,2013-04-05 04:47:00,
2013-04-04 22:49:00,59.0,51.0,30.14,ENE,67,6.0,6.0,76,0.00,,,0.00,TxWx,2013-04-05 04:49:00,
2013-04-04 22:51:00,59.0,51.0,30.14,ENE,67,11.0,12.0,76,0.00,,,0.00,TxWx,2013-04-05 04:51:00,
2013-04-04 22:52:00,59.0,51.0,30.14,ENE,67,11.0,13.0,76,0.00,,,0.00,TxWx,2013-04-05 04:52:00,
2013-04-04 22:53:00,59.0,51.0,30.14,East,90,11.0,13.0,75,0.00,,,0.00,TxWx,2013-04-05 04:53:00,
2013-04-04 22:56:00,59.0,51.0,30.14,East,90,9.0,10.0,76,0.00,,,0.00,TxWx,2013-04-05 04:56:00,
2013-04-04 22:57:00,59.0,51.0,30.14,ENE,67,10.0,10.0,76,0.00,,,0.00,TxWx,2013-04-05 04:57:00,
2013-04-04 22:58:00,59.0,52.0,30.14,ENE,67,6.0,6.0,77,0.00,,,0.00,TxWx,2013-04-05 04:58:00,
2013-04-04 23:01:00,59.0,51.0,30.14,NE,45,9.0,9.0,76,0.00,,,0.00,TxWx,2013-04-05 05:01:00,
2013-04-04 23:02:00,59.0,51.0,30.14,ENE,67,6.0,7.0,76,0.00,,,0.00,TxWx,2013-04-05 05:02:00,
2013-04-04 23:03:00,59.0,51.0,30.14,ENE,67,9.0,9.0,76,0.00,,,0.00,TxWx,2013-04-05 05:03:00,
2013-04-04 23:07:00,58.0,50.0,30.14,ENE,67,7.0,10.0,76,0.00,,,0.00,TxWx,2013-04-05 05:07:00,
2013-04-04 23:08:00,58.0,50.0,30.14,East,90,9.0,9.0,76,0.00,,,0.00,TxWx,2013-04-05 05:08:00,
2013-04-04 23:09:00,58.0,50.0,30.14,East,90,5.0,6.0,76,0.00,,,0.00,TxWx,2013-04-05 05:09:00,
2013-04-04 23:13:00,58.0,50.0,30.14,ENE,67,9.0,9.0,76,0.00,,,0.00,TxWx,2013-04-05 05:13:00,
2013-04-04 23:14:00,58.0,51.0,30.14,East,90,6.0,7.0,77,0.00,,,0.00,TxWx,2013-04-05 05:14:00,
2013-04-04 23:15:00,59.0,52.0,30.14,NE,45,12.0,12.0,78,0.00,,,0.00,TxWx,2013-04-05 05:15:00,
2013-04-04 23:17:00,59.0,52.0,30.14,NE,45,8.0,8.0,78,0.00,,,0.00,TxWx,2013-04-05 05:17:00,
2013-04-04 23:20:00,58.0,51.0,30.14,NE,45,10.0,12.0,78,0.00,,,0.00,TxWx,2013-04-05 05:20:00,
2013-04-04 23:22:00,58.0,51.0,30.14,NE,45,8.0,8.0,78,0.00,,,0.00,TxWx,2013-04-05 05:22:00,
2013-04-04 23:25:00,58.0,51.0,30.14,NNW,337,11.0,13.0,78,0.00,,,0.00,TxWx,2013-04-05 05:25:00,
2013-04-04 23:26:00,58.0,51.0,30.14,NE,45,10.0,10.0,78,0.00,,,0.00,TxWx,2013-04-05 05:26:00,
2013-04-04 23:28:00,58.0,51.0,30.14,East,90,11.0,12.0,78,0.00,,,0.00,TxWx,2013-04-05 05:28:00,
2013-04-04 23:30:00,58.0,51.0,30.14,ENE,67,11.0,12.0,78,0.00,,,0.00,TxWx,2013-04-05 05:30:00,
2013-04-04 23:31:00,58.0,51.0,30.14,East,90,7.0,9.0,79,0.00,,,0.00,TxWx,2013-04-05 05:31:00,
2013-04-04 23:35:00,58.0,51.0,30.14,East,90,6.0,6.0,78,0.00,,,0.00,TxWx,2013-04-05 05:35:00,
2013-04-04 23:36:00,58.0,51.0,30.14,East,90,11.0,12.0,78,0.00,,,0.00,TxWx,2013-04-05 05:36:00,
2013-04-04 23:37:00,58.0,51.0,30.14,NNE,22,10.0,10.0,79,0.00,,,0.00,TxWx,2013-04-05 05:37:00,
2013-04-04 23:42:00,58.0,51.0,30.15,ENE,67,5.0,8.0,79,0.00,,,0.00,TxWx,2013-04-05 05:42:00,
2013-04-04 23:43:00,58.0,52.0,30.15,ESE,112,6.0,6.0,79,0.00,,,0.00,TxWx,2013-04-05 05:43:00,
2013-04-04 23:47:00,58.0,51.0,30.15,ENE,67,13.0,14.0,79,0.00,,,0.00,TxWx,2013-04-05 05:47:00,
2013-04-04 23:48:00,58.0,51.0,30.15,NE,45,10.0,10.0,78,0.00,,,0.00,TxWx,2013-04-05 05:48:00,
2013-04-04 23:49:00,58.0,51.0,30.14,East,90,8.0,9.0,79,0.00,,,0.00,TxWx,2013-04-05 05:49:00,
2013-04-04 23:51:00,58.0,51.0,30.15,East,90,11.0,14.0,78,0.00,,,0.00,TxWx,2013-04-05 05:51:00,
2013-04-04 23:54:00,58.0,51.0,30.15,East,90,3.0,5.0,79,0.00,,,0.00,TxWx,2013-04-05 05:54:00,
2013-04-04 23:55:00,58.0,51.0,30.15,ESE,112,6.0,6.0,78,0.00,,,0.00,TxWx,2013-04-05 05:55:00,
2013-04-04 23:56:00,57.0,50.0,30.15,ENE,67,11.0,11.0,78,0.00,,,0.00,TxWx,2013-04-05 05:56:00,
2013-04-04 23:59:00,58.0,51.0,30.15,East,90,14.0,14.0,78,0.00,,,0.00,TxWx,2013-04-05 05:59:00,